<?xml version="1.0" encoding="UTF-8"?><gpx creator="Wikiloc - http://www.wikiloc.com" version="1.1" xmlns="http://www.topografix.com/GPX/1/1" xmlns:xsi="http://www.w3.org/2001/XMLSchema-instance" xsi:schemaLocation="http://www.topografix.com/GPX/1/1 http://www.topografix.com/GPX/1/1/gpx.xsd"><wpt lat="40.274730" lon="-6.470350"><ele>914.4</ele><time>2008-07-28T05:18:19Z</time><name>MIRADOR</name><cmt></cmt><desc></desc></wpt><wpt lat="40.307466" lon="-6.482911"><ele>0.0</ele><time>2009-05-05T14:51:42Z</time><name>DESCARGAMARIA</name><cmt></cmt><desc></desc></wpt><trk><name>PR-CC 186 'El Chorrito' (Descargamaría)</name><cmt></cmt><desc></desc><trkseg><trkpt lat="40.307360" lon="-6.482850"><ele>552.9</ele><time>2008-07-26T07:44:54Z</time></trkpt><trkpt lat="40.307510" lon="-6.482790"><ele>498.1</ele><time>2008-07-26T07:45:26Z</time></trkpt><trkpt lat="40.307520" lon="-6.482780"><ele>504.4</ele><time>2008-07-26T07:45:42Z</time></trkpt><trkpt lat="40.307560" lon="-6.482720"><ele>500.5</ele><time>2008-07-26T07:46:31Z</time></trkpt><trkpt lat="40.307570" lon="-6.482690"><ele>501.0</ele><time>2008-07-26T07:46:47Z</time></trkpt><trkpt lat="40.307550" lon="-6.482740"><ele>499.5</ele><time>2008-07-26T07:47:47Z</time></trkpt><trkpt lat="40.307480" lon="-6.482550"><ele>498.1</ele><time>2008-07-26T07:48:28Z</time></trkpt><trkpt lat="40.307320" lon="-6.482270"><ele>498.1</ele><time>2008-07-26T07:48:53Z</time></trkpt><trkpt lat="40.307310" lon="-6.482240"><ele>498.6</ele><time>2008-07-26T07:48:54Z</time></trkpt><trkpt lat="40.307200" lon="-6.482010"><ele>498.1</ele><time>2008-07-26T07:49:13Z</time></trkpt><trkpt lat="40.307140" lon="-6.481920"><ele>498.1</ele><time>2008-07-26T07:49:29Z</time></trkpt><trkpt lat="40.307010" lon="-6.481340"><ele>501.9</ele><time>2008-07-26T07:50:42Z</time></trkpt><trkpt lat="40.306820" lon="-6.480580"><ele>507.7</ele><time>2008-07-26T07:51:40Z</time></trkpt><trkpt lat="40.306690" lon="-6.480540"><ele>508.7</ele><time>2008-07-26T07:52:53Z</time></trkpt><trkpt lat="40.306470" lon="-6.481050"><ele>510.6</ele><time>2008-07-26T07:53:47Z</time></trkpt><trkpt lat="40.306330" lon="-6.481120"><ele>507.7</ele><time>2008-07-26T07:54:00Z</time></trkpt><trkpt lat="40.306230" lon="-6.481160"><ele>508.2</ele><time>2008-07-26T07:54:09Z</time></trkpt><trkpt lat="40.306160" lon="-6.481190"><ele>508.2</ele><time>2008-07-26T07:54:14Z</time></trkpt><trkpt lat="40.305690" lon="-6.481490"><ele>552.4</ele><time>2008-07-26T07:54:34Z</time></trkpt><trkpt lat="40.305410" lon="-6.481560"><ele>550.5</ele><time>2008-07-26T07:54:53Z</time></trkpt><trkpt lat="40.305380" lon="-6.481550"><ele>550.0</ele><time>2008-07-26T07:54:57Z</time></trkpt><trkpt lat="40.305180" lon="-6.481360"><ele>549.5</ele><time>2008-07-26T07:55:16Z</time></trkpt><trkpt lat="40.305100" lon="-6.481130"><ele>546.7</ele><time>2008-07-26T07:55:35Z</time></trkpt><trkpt lat="40.305260" lon="-6.481020"><ele>544.3</ele><time>2008-07-26T07:55:50Z</time></trkpt><trkpt lat="40.305340" lon="-6.481040"><ele>541.8</ele><time>2008-07-26T07:56:10Z</time></trkpt><trkpt lat="40.305550" lon="-6.481090"><ele>538.9</ele><time>2008-07-26T07:56:52Z</time></trkpt><trkpt lat="40.306308" lon="-6.480224"><ele>537.5</ele><time>2008-07-26T07:57:08Z</time></trkpt><trkpt lat="40.306542" lon="-6.478544"><ele>538.5</ele><time>2008-07-26T08:00:48Z</time></trkpt><trkpt lat="40.307442" lon="-6.479334"><ele>538.5</ele><time>2008-07-26T08:01:29Z</time></trkpt><trkpt lat="40.307820" lon="-6.478790"><ele>540.4</ele><time>2008-07-26T08:02:52Z</time></trkpt><trkpt lat="40.307958" lon="-6.478233"><ele>540.9</ele><time>2008-07-26T08:03:17Z</time></trkpt><trkpt lat="40.308370" lon="-6.478500"><ele>541.8</ele><time>2008-07-26T08:03:38Z</time></trkpt><trkpt lat="40.308731" lon="-6.478157"><ele>542.3</ele><time>2008-07-26T08:04:12Z</time></trkpt><trkpt lat="40.309813" lon="-6.477363"><ele>541.8</ele><time>2008-07-26T08:06:50Z</time></trkpt><trkpt lat="40.309810" lon="-6.476400"><ele>543.3</ele><time>2008-07-26T08:07:13Z</time></trkpt><trkpt lat="40.309512" lon="-6.475963"><ele>546.2</ele><time>2008-07-26T08:07:26Z</time></trkpt><trkpt lat="40.309262" lon="-6.476890"><ele>550.0</ele><time>2008-07-26T08:09:20Z</time></trkpt><trkpt lat="40.308660" lon="-6.477020"><ele>556.7</ele><time>2008-07-26T08:10:38Z</time></trkpt><trkpt lat="40.308500" lon="-6.476990"><ele>561.5</ele><time>2008-07-26T08:11:01Z</time></trkpt><trkpt lat="40.308390" lon="-6.476980"><ele>565.4</ele><time>2008-07-26T08:11:13Z</time></trkpt><trkpt lat="40.308200" lon="-6.476900"><ele>571.2</ele><time>2008-07-26T08:11:35Z</time></trkpt><trkpt lat="40.308030" lon="-6.476710"><ele>573.1</ele><time>2008-07-26T08:11:56Z</time></trkpt><trkpt lat="40.307850" lon="-6.476550"><ele>573.1</ele><time>2008-07-26T08:12:18Z</time></trkpt><trkpt lat="40.307470" lon="-6.476350"><ele>575.5</ele><time>2008-07-26T08:13:11Z</time></trkpt><trkpt lat="40.307360" lon="-6.476440"><ele>610.1</ele><time>2008-07-26T08:14:40Z</time></trkpt><trkpt lat="40.307210" lon="-6.476390"><ele>611.6</ele><time>2008-07-26T08:14:57Z</time></trkpt><trkpt lat="40.307070" lon="-6.476270"><ele>613.5</ele><time>2008-07-26T08:15:15Z</time></trkpt><trkpt lat="40.307030" lon="-6.476230"><ele>614.4</ele><time>2008-07-26T08:15:22Z</time></trkpt><trkpt lat="40.306910" lon="-6.476060"><ele>615.8</ele><time>2008-07-26T08:15:38Z</time></trkpt><trkpt lat="40.306810" lon="-6.475940"><ele>621.6</ele><time>2008-07-26T08:15:53Z</time></trkpt><trkpt lat="40.306730" lon="-6.475830"><ele>618.7</ele><time>2008-07-26T08:16:10Z</time></trkpt><trkpt lat="40.306730" lon="-6.475840"><ele>618.3</ele><time>2008-07-26T08:16:33Z</time></trkpt><trkpt lat="40.306720" lon="-6.475840"><ele>619.2</ele><time>2008-07-26T08:16:44Z</time></trkpt><trkpt lat="40.306650" lon="-6.475820"><ele>622.6</ele><time>2008-07-26T08:17:02Z</time></trkpt><trkpt lat="40.306600" lon="-6.475830"><ele>624.0</ele><time>2008-07-26T08:17:07Z</time></trkpt><trkpt lat="40.306510" lon="-6.475890"><ele>628.3</ele><time>2008-07-26T08:17:22Z</time></trkpt><trkpt lat="40.306440" lon="-6.475960"><ele>632.2</ele><time>2008-07-26T08:17:34Z</time></trkpt><trkpt lat="40.306420" lon="-6.475990"><ele>634.6</ele><time>2008-07-26T08:17:47Z</time></trkpt><trkpt lat="40.306400" lon="-6.476030"><ele>637.0</ele><time>2008-07-26T08:18:18Z</time></trkpt><trkpt lat="40.306280" lon="-6.476050"><ele>638.0</ele><time>2008-07-26T08:18:33Z</time></trkpt><trkpt lat="40.306100" lon="-6.476050"><ele>640.4</ele><time>2008-07-26T08:18:51Z</time></trkpt><trkpt lat="40.305930" lon="-6.476010"><ele>639.9</ele><time>2008-07-26T08:19:08Z</time></trkpt><trkpt lat="40.305750" lon="-6.476000"><ele>642.3</ele><time>2008-07-26T08:19:23Z</time></trkpt><trkpt lat="40.305590" lon="-6.476010"><ele>644.2</ele><time>2008-07-26T08:19:38Z</time></trkpt><trkpt lat="40.305380" lon="-6.476020"><ele>648.1</ele><time>2008-07-26T08:19:56Z</time></trkpt><trkpt lat="40.305220" lon="-6.476050"><ele>651.9</ele><time>2008-07-26T08:20:11Z</time></trkpt><trkpt lat="40.305080" lon="-6.476060"><ele>660.6</ele><time>2008-07-26T08:20:28Z</time></trkpt><trkpt lat="40.305060" lon="-6.476060"><ele>661.5</ele><time>2008-07-26T08:20:32Z</time></trkpt><trkpt lat="40.305200" lon="-6.475990"><ele>662.5</ele><time>2008-07-26T08:20:36Z</time></trkpt><trkpt lat="40.305100" lon="-6.475990"><ele>661.1</ele><time>2008-07-26T08:20:43Z</time></trkpt><trkpt lat="40.305020" lon="-6.476050"><ele>662.5</ele><time>2008-07-26T08:20:48Z</time></trkpt><trkpt lat="40.304770" lon="-6.476210"><ele>665.4</ele><time>2008-07-26T08:21:07Z</time></trkpt><trkpt lat="40.304480" lon="-6.476240"><ele>667.8</ele><time>2008-07-26T08:21:26Z</time></trkpt><trkpt lat="40.304210" lon="-6.476220"><ele>672.1</ele><time>2008-07-26T08:21:41Z</time></trkpt><trkpt lat="40.304010" lon="-6.476120"><ele>675.5</ele><time>2008-07-26T08:21:57Z</time></trkpt><trkpt lat="40.303930" lon="-6.476080"><ele>676.9</ele><time>2008-07-26T08:22:08Z</time></trkpt><trkpt lat="40.303880" lon="-6.476070"><ele>676.0</ele><time>2008-07-26T08:22:19Z</time></trkpt><trkpt lat="40.303790" lon="-6.476030"><ele>676.0</ele><time>2008-07-26T08:22:34Z</time></trkpt><trkpt lat="40.303720" lon="-6.475970"><ele>676.0</ele><time>2008-07-26T08:22:51Z</time></trkpt><trkpt lat="40.303550" lon="-6.475880"><ele>678.8</ele><time>2008-07-26T08:23:06Z</time></trkpt><trkpt lat="40.303410" lon="-6.475780"><ele>679.3</ele><time>2008-07-26T08:23:20Z</time></trkpt><trkpt lat="40.303250" lon="-6.475670"><ele>681.2</ele><time>2008-07-26T08:23:33Z</time></trkpt><trkpt lat="40.303120" lon="-6.475600"><ele>680.3</ele><time>2008-07-26T08:23:49Z</time></trkpt><trkpt lat="40.302990" lon="-6.475640"><ele>682.7</ele><time>2008-07-26T08:24:04Z</time></trkpt><trkpt lat="40.302760" lon="-6.475810"><ele>684.6</ele><time>2008-07-26T08:24:32Z</time></trkpt><trkpt lat="40.302320" lon="-6.476290"><ele>686.5</ele><time>2008-07-26T08:25:17Z</time></trkpt><trkpt lat="40.302200" lon="-6.476500"><ele>689.9</ele><time>2008-07-26T08:25:36Z</time></trkpt><trkpt lat="40.302040" lon="-6.476670"><ele>694.7</ele><time>2008-07-26T08:25:53Z</time></trkpt><trkpt lat="40.301890" lon="-6.476730"><ele>702.4</ele><time>2008-07-26T08:26:08Z</time></trkpt><trkpt lat="40.301790" lon="-6.476700"><ele>706.7</ele><time>2008-07-26T08:26:22Z</time></trkpt><trkpt lat="40.301730" lon="-6.476650"><ele>708.6</ele><time>2008-07-26T08:26:34Z</time></trkpt><trkpt lat="40.301620" lon="-6.476460"><ele>710.1</ele><time>2008-07-26T08:26:50Z</time></trkpt><trkpt lat="40.301510" lon="-6.476210"><ele>713.9</ele><time>2008-07-26T08:27:08Z</time></trkpt><trkpt lat="40.301460" lon="-6.476140"><ele>720.2</ele><time>2008-07-26T08:27:17Z</time></trkpt><trkpt lat="40.301480" lon="-6.475830"><ele>724.5</ele><time>2008-07-26T08:27:33Z</time></trkpt><trkpt lat="40.301570" lon="-6.475560"><ele>727.4</ele><time>2008-07-26T08:27:51Z</time></trkpt><trkpt lat="40.301650" lon="-6.475380"><ele>731.2</ele><time>2008-07-26T08:28:03Z</time></trkpt><trkpt lat="40.301800" lon="-6.475130"><ele>731.2</ele><time>2008-07-26T08:28:21Z</time></trkpt><trkpt lat="40.301990" lon="-6.474930"><ele>732.6</ele><time>2008-07-26T08:28:38Z</time></trkpt><trkpt lat="40.302120" lon="-6.474860"><ele>729.3</ele><time>2008-07-26T08:28:50Z</time></trkpt><trkpt lat="40.302290" lon="-6.474750"><ele>730.7</ele><time>2008-07-26T08:29:06Z</time></trkpt><trkpt lat="40.302440" lon="-6.474610"><ele>733.1</ele><time>2008-07-26T08:29:20Z</time></trkpt><trkpt lat="40.302580" lon="-6.474490"><ele>735.5</ele><time>2008-07-26T08:29:32Z</time></trkpt><trkpt lat="40.302780" lon="-6.474310"><ele>734.1</ele><time>2008-07-26T08:29:50Z</time></trkpt><trkpt lat="40.303020" lon="-6.474240"><ele>737.0</ele><time>2008-07-26T08:30:07Z</time></trkpt><trkpt lat="40.303280" lon="-6.474130"><ele>741.3</ele><time>2008-07-26T08:30:26Z</time></trkpt><trkpt lat="40.303450" lon="-6.474090"><ele>742.3</ele><time>2008-07-26T08:30:41Z</time></trkpt><trkpt lat="40.303570" lon="-6.474090"><ele>743.7</ele><time>2008-07-26T08:30:52Z</time></trkpt><trkpt lat="40.303740" lon="-6.474000"><ele>747.6</ele><time>2008-07-26T08:31:08Z</time></trkpt><trkpt lat="40.303750" lon="-6.474000"><ele>747.6</ele><time>2008-07-26T08:31:08Z</time></trkpt><trkpt lat="40.304400" lon="-6.473760"><ele>752.4</ele><time>2008-07-26T08:32:02Z</time></trkpt><trkpt lat="40.304580" lon="-6.473770"><ele>754.3</ele><time>2008-07-26T08:32:17Z</time></trkpt><trkpt lat="40.304620" lon="-6.473770"><ele>755.7</ele><time>2008-07-26T08:32:21Z</time></trkpt><trkpt lat="40.304760" lon="-6.473720"><ele>755.3</ele><time>2008-07-26T08:32:34Z</time></trkpt><trkpt lat="40.304890" lon="-6.473610"><ele>754.8</ele><time>2008-07-26T08:32:49Z</time></trkpt><trkpt lat="40.305040" lon="-6.473480"><ele>757.2</ele><time>2008-07-26T08:33:04Z</time></trkpt><trkpt lat="40.305170" lon="-6.473370"><ele>760.0</ele><time>2008-07-26T08:33:19Z</time></trkpt><trkpt lat="40.305260" lon="-6.473240"><ele>761.0</ele><time>2008-07-26T08:33:31Z</time></trkpt><trkpt lat="40.305390" lon="-6.473050"><ele>762.5</ele><time>2008-07-26T08:33:49Z</time></trkpt><trkpt lat="40.305510" lon="-6.472810"><ele>763.9</ele><time>2008-07-26T08:34:06Z</time></trkpt><trkpt lat="40.305660" lon="-6.472520"><ele>768.7</ele><time>2008-07-26T08:34:25Z</time></trkpt><trkpt lat="40.305760" lon="-6.472350"><ele>768.7</ele><time>2008-07-26T08:34:40Z</time></trkpt><trkpt lat="40.305860" lon="-6.472190"><ele>772.1</ele><time>2008-07-26T08:34:53Z</time></trkpt><trkpt lat="40.305910" lon="-6.471950"><ele>771.6</ele><time>2008-07-26T08:35:06Z</time></trkpt><trkpt lat="40.305940" lon="-6.471710"><ele>773.0</ele><time>2008-07-26T08:35:19Z</time></trkpt><trkpt lat="40.305960" lon="-6.471580"><ele>775.0</ele><time>2008-07-26T08:35:31Z</time></trkpt><trkpt lat="40.305970" lon="-6.471260"><ele>778.3</ele><time>2008-07-26T08:35:49Z</time></trkpt><trkpt lat="40.305970" lon="-6.471060"><ele>777.8</ele><time>2008-07-26T08:36:02Z</time></trkpt><trkpt lat="40.305980" lon="-6.470870"><ele>781.2</ele><time>2008-07-26T08:36:16Z</time></trkpt><trkpt lat="40.305980" lon="-6.470600"><ele>786.0</ele><time>2008-07-26T08:36:31Z</time></trkpt><trkpt lat="40.306060" lon="-6.470380"><ele>787.9</ele><time>2008-07-26T08:36:45Z</time></trkpt><trkpt lat="40.306090" lon="-6.470350"><ele>788.4</ele><time>2008-07-26T08:36:50Z</time></trkpt><trkpt lat="40.306230" lon="-6.470170"><ele>792.3</ele><time>2008-07-26T08:37:04Z</time></trkpt><trkpt lat="40.306390" lon="-6.470040"><ele>797.1</ele><time>2008-07-26T08:37:19Z</time></trkpt><trkpt lat="40.306550" lon="-6.469940"><ele>801.4</ele><time>2008-07-26T08:37:34Z</time></trkpt><trkpt lat="40.306680" lon="-6.469850"><ele>802.4</ele><time>2008-07-26T08:37:48Z</time></trkpt><trkpt lat="40.306710" lon="-6.469820"><ele>802.8</ele><time>2008-07-26T08:37:50Z</time></trkpt><trkpt lat="40.306840" lon="-6.469730"><ele>804.8</ele><time>2008-07-26T08:38:05Z</time></trkpt><trkpt lat="40.306870" lon="-6.469710"><ele>804.8</ele><time>2008-07-26T08:38:08Z</time></trkpt><trkpt lat="40.306910" lon="-6.469650"><ele>805.7</ele><time>2008-07-26T08:38:13Z</time></trkpt><trkpt lat="40.307070" lon="-6.469550"><ele>808.1</ele><time>2008-07-26T08:38:28Z</time></trkpt><trkpt lat="40.307190" lon="-6.469430"><ele>811.5</ele><time>2008-07-26T08:38:40Z</time></trkpt><trkpt lat="40.307310" lon="-6.469250"><ele>813.9</ele><time>2008-07-26T08:38:55Z</time></trkpt><trkpt lat="40.307400" lon="-6.469130"><ele>815.8</ele><time>2008-07-26T08:39:07Z</time></trkpt><trkpt lat="40.307490" lon="-6.469010"><ele>817.3</ele><time>2008-07-26T08:39:18Z</time></trkpt><trkpt lat="40.307570" lon="-6.468810"><ele>819.7</ele><time>2008-07-26T08:39:33Z</time></trkpt><trkpt lat="40.307640" lon="-6.468610"><ele>821.1</ele><time>2008-07-26T08:39:45Z</time></trkpt><trkpt lat="40.307720" lon="-6.468380"><ele>823.0</ele><time>2008-07-26T08:40:01Z</time></trkpt><trkpt lat="40.307790" lon="-6.468230"><ele>826.4</ele><time>2008-07-26T08:40:15Z</time></trkpt><trkpt lat="40.307870" lon="-6.468040"><ele>826.9</ele><time>2008-07-26T08:40:28Z</time></trkpt><trkpt lat="40.307980" lon="-6.467900"><ele>831.7</ele><time>2008-07-26T08:40:43Z</time></trkpt><trkpt lat="40.308060" lon="-6.467770"><ele>834.1</ele><time>2008-07-26T08:40:58Z</time></trkpt><trkpt lat="40.308160" lon="-6.467590"><ele>835.5</ele><time>2008-07-26T08:41:11Z</time></trkpt><trkpt lat="40.308280" lon="-6.467460"><ele>837.0</ele><time>2008-07-26T08:41:25Z</time></trkpt><trkpt lat="40.308400" lon="-6.467340"><ele>839.4</ele><time>2008-07-26T08:41:41Z</time></trkpt><trkpt lat="40.308450" lon="-6.467280"><ele>840.8</ele><time>2008-07-26T08:41:48Z</time></trkpt><trkpt lat="40.308490" lon="-6.467260"><ele>841.8</ele><time>2008-07-26T08:41:52Z</time></trkpt><trkpt lat="40.308630" lon="-6.467150"><ele>846.1</ele><time>2008-07-26T08:42:07Z</time></trkpt><trkpt lat="40.308780" lon="-6.467100"><ele>847.5</ele><time>2008-07-26T08:42:19Z</time></trkpt><trkpt lat="40.308910" lon="-6.467060"><ele>849.0</ele><time>2008-07-26T08:42:32Z</time></trkpt><trkpt lat="40.309060" lon="-6.467020"><ele>851.9</ele><time>2008-07-26T08:42:46Z</time></trkpt><trkpt lat="40.309090" lon="-6.467020"><ele>852.8</ele><time>2008-07-26T08:42:59Z</time></trkpt><trkpt lat="40.309180" lon="-6.466970"><ele>854.3</ele><time>2008-07-26T08:43:17Z</time></trkpt><trkpt lat="40.309230" lon="-6.466910"><ele>854.8</ele><time>2008-07-26T08:43:22Z</time></trkpt><trkpt lat="40.309290" lon="-6.466890"><ele>856.2</ele><time>2008-07-26T08:43:29Z</time></trkpt><trkpt lat="40.309410" lon="-6.466750"><ele>858.6</ele><time>2008-07-26T08:43:44Z</time></trkpt><trkpt lat="40.309500" lon="-6.466630"><ele>860.5</ele><time>2008-07-26T08:43:56Z</time></trkpt><trkpt lat="40.309610" lon="-6.466530"><ele>861.5</ele><time>2008-07-26T08:44:08Z</time></trkpt><trkpt lat="40.309730" lon="-6.466400"><ele>863.9</ele><time>2008-07-26T08:44:23Z</time></trkpt><trkpt lat="40.309850" lon="-6.466220"><ele>865.3</ele><time>2008-07-26T08:44:38Z</time></trkpt><trkpt lat="40.309950" lon="-6.466090"><ele>867.7</ele><time>2008-07-26T08:44:53Z</time></trkpt><trkpt lat="40.310060" lon="-6.465970"><ele>870.6</ele><time>2008-07-26T08:45:06Z</time></trkpt><trkpt lat="40.310190" lon="-6.465880"><ele>874.5</ele><time>2008-07-26T08:45:21Z</time></trkpt><trkpt lat="40.310320" lon="-6.465760"><ele>878.3</ele><time>2008-07-26T08:45:36Z</time></trkpt><trkpt lat="40.310430" lon="-6.465640"><ele>882.6</ele><time>2008-07-26T08:45:51Z</time></trkpt><trkpt lat="40.310510" lon="-6.465530"><ele>883.6</ele><time>2008-07-26T08:46:02Z</time></trkpt><trkpt lat="40.310630" lon="-6.465400"><ele>886.0</ele><time>2008-07-26T08:46:17Z</time></trkpt><trkpt lat="40.310710" lon="-6.465320"><ele>887.9</ele><time>2008-07-26T08:46:27Z</time></trkpt><trkpt lat="40.310810" lon="-6.465210"><ele>890.3</ele><time>2008-07-26T08:46:41Z</time></trkpt><trkpt lat="40.310860" lon="-6.465180"><ele>892.2</ele><time>2008-07-26T08:46:52Z</time></trkpt><trkpt lat="40.310920" lon="-6.465100"><ele>891.3</ele><time>2008-07-26T08:47:12Z</time></trkpt><trkpt lat="40.311030" lon="-6.464960"><ele>894.2</ele><time>2008-07-26T08:47:27Z</time></trkpt><trkpt lat="40.311140" lon="-6.464830"><ele>897.1</ele><time>2008-07-26T08:47:40Z</time></trkpt><trkpt lat="40.311270" lon="-6.464740"><ele>899.5</ele><time>2008-07-26T08:47:55Z</time></trkpt><trkpt lat="40.311370" lon="-6.464660"><ele>901.8</ele><time>2008-07-26T08:48:09Z</time></trkpt><trkpt lat="40.311460" lon="-6.464570"><ele>905.2</ele><time>2008-07-26T08:48:18Z</time></trkpt><trkpt lat="40.311510" lon="-6.464550"><ele>906.7</ele><time>2008-07-26T08:48:25Z</time></trkpt><trkpt lat="40.311630" lon="-6.464440"><ele>910.5</ele><time>2008-07-26T08:48:38Z</time></trkpt><trkpt lat="40.311740" lon="-6.464330"><ele>912.9</ele><time>2008-07-26T08:48:53Z</time></trkpt><trkpt lat="40.311820" lon="-6.464230"><ele>916.7</ele><time>2008-07-26T08:49:05Z</time></trkpt><trkpt lat="40.311890" lon="-6.464090"><ele>918.7</ele><time>2008-07-26T08:49:17Z</time></trkpt><trkpt lat="40.311910" lon="-6.464050"><ele>919.6</ele><time>2008-07-26T08:49:21Z</time></trkpt><trkpt lat="40.311940" lon="-6.463930"><ele>921.1</ele><time>2008-07-26T08:49:32Z</time></trkpt><trkpt lat="40.311950" lon="-6.463790"><ele>924.0</ele><time>2008-07-26T08:49:43Z</time></trkpt><trkpt lat="40.311950" lon="-6.463680"><ele>924.9</ele><time>2008-07-26T08:49:51Z</time></trkpt><trkpt lat="40.311940" lon="-6.463600"><ele>926.8</ele><time>2008-07-26T08:50:02Z</time></trkpt><trkpt lat="40.311880" lon="-6.463470"><ele>929.7</ele><time>2008-07-26T08:50:15Z</time></trkpt><trkpt lat="40.311790" lon="-6.463320"><ele>932.6</ele><time>2008-07-26T08:50:29Z</time></trkpt><trkpt lat="40.311710" lon="-6.463200"><ele>934.5</ele><time>2008-07-26T08:50:41Z</time></trkpt><trkpt lat="40.311620" lon="-6.463020"><ele>937.4</ele><time>2008-07-26T08:50:56Z</time></trkpt><trkpt lat="40.311570" lon="-6.462830"><ele>941.7</ele><time>2008-07-26T08:51:12Z</time></trkpt><trkpt lat="40.311520" lon="-6.462710"><ele>941.7</ele><time>2008-07-26T08:51:23Z</time></trkpt><trkpt lat="40.311510" lon="-6.462680"><ele>945.6</ele><time>2008-07-26T08:51:39Z</time></trkpt><trkpt lat="40.311490" lon="-6.462610"><ele>946.6</ele><time>2008-07-26T08:51:59Z</time></trkpt><trkpt lat="40.311410" lon="-6.462440"><ele>948.0</ele><time>2008-07-26T08:52:13Z</time></trkpt><trkpt lat="40.311350" lon="-6.462320"><ele>948.5</ele><time>2008-07-26T08:52:24Z</time></trkpt><trkpt lat="40.311260" lon="-6.462210"><ele>951.4</ele><time>2008-07-26T08:52:36Z</time></trkpt><trkpt lat="40.311200" lon="-6.462080"><ele>953.3</ele><time>2008-07-26T08:52:47Z</time></trkpt><trkpt lat="40.311130" lon="-6.461930"><ele>954.2</ele><time>2008-07-26T08:53:00Z</time></trkpt><trkpt lat="40.311100" lon="-6.461870"><ele>957.1</ele><time>2008-07-26T08:53:14Z</time></trkpt><trkpt lat="40.311040" lon="-6.461730"><ele>957.1</ele><time>2008-07-26T08:53:27Z</time></trkpt><trkpt lat="40.310940" lon="-6.461550"><ele>961.0</ele><time>2008-07-26T08:53:42Z</time></trkpt><trkpt lat="40.310860" lon="-6.461420"><ele>963.9</ele><time>2008-07-26T08:53:57Z</time></trkpt><trkpt lat="40.310800" lon="-6.461280"><ele>963.9</ele><time>2008-07-26T08:54:12Z</time></trkpt><trkpt lat="40.310790" lon="-6.461260"><ele>965.3</ele><time>2008-07-26T08:54:21Z</time></trkpt><trkpt lat="40.310720" lon="-6.461120"><ele>967.2</ele><time>2008-07-26T08:54:33Z</time></trkpt><trkpt lat="40.310720" lon="-6.461010"><ele>969.6</ele><time>2008-07-26T08:54:43Z</time></trkpt><trkpt lat="40.310760" lon="-6.460950"><ele>971.1</ele><time>2008-07-26T08:54:48Z</time></trkpt><trkpt lat="40.310790" lon="-6.460930"><ele>971.1</ele><time>2008-07-26T08:54:52Z</time></trkpt><trkpt lat="40.310940" lon="-6.460960"><ele>971.5</ele><time>2008-07-26T08:55:04Z</time></trkpt><trkpt lat="40.311130" lon="-6.461060"><ele>975.9</ele><time>2008-07-26T08:55:22Z</time></trkpt><trkpt lat="40.311290" lon="-6.461070"><ele>976.8</ele><time>2008-07-26T08:55:35Z</time></trkpt><trkpt lat="40.311370" lon="-6.461030"><ele>977.3</ele><time>2008-07-26T08:55:46Z</time></trkpt><trkpt lat="40.311500" lon="-6.460930"><ele>976.4</ele><time>2008-07-26T08:56:01Z</time></trkpt><trkpt lat="40.311610" lon="-6.460830"><ele>977.8</ele><time>2008-07-26T08:56:15Z</time></trkpt><trkpt lat="40.311720" lon="-6.460730"><ele>979.2</ele><time>2008-07-26T08:56:28Z</time></trkpt><trkpt lat="40.311850" lon="-6.460660"><ele>981.2</ele><time>2008-07-26T08:56:40Z</time></trkpt><trkpt lat="40.311980" lon="-6.460560"><ele>985.0</ele><time>2008-07-26T08:56:55Z</time></trkpt><trkpt lat="40.312090" lon="-6.460470"><ele>987.4</ele><time>2008-07-26T08:57:10Z</time></trkpt><trkpt lat="40.312200" lon="-6.460380"><ele>990.3</ele><time>2008-07-26T08:57:22Z</time></trkpt><trkpt lat="40.312300" lon="-6.460280"><ele>995.1</ele><time>2008-07-26T08:57:36Z</time></trkpt><trkpt lat="40.312290" lon="-6.460160"><ele>999.0</ele><time>2008-07-26T08:57:46Z</time></trkpt><trkpt lat="40.312220" lon="-6.460020"><ele>1002.3</ele><time>2008-07-26T08:58:01Z</time></trkpt><trkpt lat="40.312160" lon="-6.459920"><ele>1004.2</ele><time>2008-07-26T08:58:12Z</time></trkpt><trkpt lat="40.312130" lon="-6.459870"><ele>1006.6</ele><time>2008-07-26T08:58:28Z</time></trkpt><trkpt lat="40.312100" lon="-6.459820"><ele>1005.2</ele><time>2008-07-26T08:58:38Z</time></trkpt><trkpt lat="40.312050" lon="-6.459820"><ele>1008.6</ele><time>2008-07-26T08:58:55Z</time></trkpt><trkpt lat="40.312050" lon="-6.459810"><ele>1011.4</ele><time>2008-07-26T08:59:24Z</time></trkpt><trkpt lat="40.312050" lon="-6.459780"><ele>1011.0</ele><time>2008-07-26T08:59:47Z</time></trkpt><trkpt lat="40.312040" lon="-6.459790"><ele>1009.0</ele><time>2008-07-26T08:59:57Z</time></trkpt><trkpt lat="40.312080" lon="-6.459830"><ele>1010.0</ele><time>2008-07-26T09:00:58Z</time></trkpt><trkpt lat="40.312070" lon="-6.459850"><ele>1007.1</ele><time>2008-07-26T09:01:10Z</time></trkpt><trkpt lat="40.311920" lon="-6.459830"><ele>1008.1</ele><time>2008-07-26T09:01:22Z</time></trkpt><trkpt lat="40.311760" lon="-6.459780"><ele>1009.0</ele><time>2008-07-26T09:01:37Z</time></trkpt><trkpt lat="40.311570" lon="-6.459730"><ele>1010.0</ele><time>2008-07-26T09:01:52Z</time></trkpt><trkpt lat="40.311410" lon="-6.459700"><ele>1010.5</ele><time>2008-07-26T09:02:04Z</time></trkpt><trkpt lat="40.311230" lon="-6.459660"><ele>1011.4</ele><time>2008-07-26T09:02:19Z</time></trkpt><trkpt lat="40.311010" lon="-6.459630"><ele>1013.9</ele><time>2008-07-26T09:02:37Z</time></trkpt><trkpt lat="40.310800" lon="-6.459550"><ele>1017.2</ele><time>2008-07-26T09:02:53Z</time></trkpt><trkpt lat="40.310720" lon="-6.459490"><ele>1017.7</ele><time>2008-07-26T09:02:58Z</time></trkpt><trkpt lat="40.310550" lon="-6.459340"><ele>1017.7</ele><time>2008-07-26T09:03:13Z</time></trkpt><trkpt lat="40.310510" lon="-6.459330"><ele>1017.7</ele><time>2008-07-26T09:03:17Z</time></trkpt><trkpt lat="40.310320" lon="-6.459210"><ele>1017.7</ele><time>2008-07-26T09:03:32Z</time></trkpt><trkpt lat="40.310220" lon="-6.459190"><ele>1016.7</ele><time>2008-07-26T09:03:47Z</time></trkpt><trkpt lat="40.310190" lon="-6.459210"><ele>1016.3</ele><time>2008-07-26T09:03:58Z</time></trkpt><trkpt lat="40.310080" lon="-6.459160"><ele>1015.3</ele><time>2008-07-26T09:04:11Z</time></trkpt><trkpt lat="40.309880" lon="-6.459100"><ele>1016.7</ele><time>2008-07-26T09:04:25Z</time></trkpt><trkpt lat="40.309660" lon="-6.459050"><ele>1015.3</ele><time>2008-07-26T09:04:42Z</time></trkpt><trkpt lat="40.309240" lon="-6.459020"><ele>1012.9</ele><time>2008-07-26T09:05:12Z</time></trkpt><trkpt lat="40.309030" lon="-6.458990"><ele>1015.3</ele><time>2008-07-26T09:05:27Z</time></trkpt><trkpt lat="40.308860" lon="-6.458950"><ele>1015.8</ele><time>2008-07-26T09:05:39Z</time></trkpt><trkpt lat="40.308800" lon="-6.458940"><ele>1015.8</ele><time>2008-07-26T09:05:43Z</time></trkpt><trkpt lat="40.308650" lon="-6.458860"><ele>1016.3</ele><time>2008-07-26T09:05:58Z</time></trkpt><trkpt lat="40.308490" lon="-6.458790"><ele>1016.7</ele><time>2008-07-26T09:06:10Z</time></trkpt><trkpt lat="40.308290" lon="-6.458670"><ele>1016.7</ele><time>2008-07-26T09:06:25Z</time></trkpt><trkpt lat="40.308120" lon="-6.458620"><ele>1017.2</ele><time>2008-07-26T09:06:37Z</time></trkpt><trkpt lat="40.307700" lon="-6.458460"><ele>1016.7</ele><time>2008-07-26T09:07:08Z</time></trkpt><trkpt lat="40.307510" lon="-6.458370"><ele>1018.2</ele><time>2008-07-26T09:07:24Z</time></trkpt><trkpt lat="40.307320" lon="-6.458280"><ele>1017.2</ele><time>2008-07-26T09:07:38Z</time></trkpt><trkpt lat="40.307110" lon="-6.458170"><ele>1018.6</ele><time>2008-07-26T09:07:54Z</time></trkpt><trkpt lat="40.306870" lon="-6.458070"><ele>1020.1</ele><time>2008-07-26T09:08:10Z</time></trkpt><trkpt lat="40.306640" lon="-6.458040"><ele>1020.6</ele><time>2008-07-26T09:08:26Z</time></trkpt><trkpt lat="40.306440" lon="-6.458060"><ele>1021.5</ele><time>2008-07-26T09:08:41Z</time></trkpt><trkpt lat="40.306220" lon="-6.458090"><ele>1023.0</ele><time>2008-07-26T09:08:55Z</time></trkpt><trkpt lat="40.305990" lon="-6.458090"><ele>1022.5</ele><time>2008-07-26T09:09:11Z</time></trkpt><trkpt lat="40.305800" lon="-6.458050"><ele>1022.0</ele><time>2008-07-26T09:09:23Z</time></trkpt><trkpt lat="40.305570" lon="-6.458010"><ele>1025.4</ele><time>2008-07-26T09:09:39Z</time></trkpt><trkpt lat="40.305400" lon="-6.457950"><ele>1025.4</ele><time>2008-07-26T09:09:53Z</time></trkpt><trkpt lat="40.305180" lon="-6.457870"><ele>1026.8</ele><time>2008-07-26T09:10:10Z</time></trkpt><trkpt lat="40.304990" lon="-6.457800"><ele>1025.9</ele><time>2008-07-26T09:10:25Z</time></trkpt><trkpt lat="40.304770" lon="-6.457770"><ele>1023.0</ele><time>2008-07-26T09:10:40Z</time></trkpt><trkpt lat="40.304650" lon="-6.457760"><ele>1023.0</ele><time>2008-07-26T09:10:52Z</time></trkpt><trkpt lat="40.304480" lon="-6.457760"><ele>1021.0</ele><time>2008-07-26T09:11:07Z</time></trkpt><trkpt lat="40.304280" lon="-6.457790"><ele>1024.9</ele><time>2008-07-26T09:11:19Z</time></trkpt><trkpt lat="40.304170" lon="-6.457820"><ele>1022.0</ele><time>2008-07-26T09:11:30Z</time></trkpt><trkpt lat="40.303960" lon="-6.458020"><ele>1021.0</ele><time>2008-07-26T09:11:46Z</time></trkpt><trkpt lat="40.303800" lon="-6.458130"><ele>1021.0</ele><time>2008-07-26T09:12:00Z</time></trkpt><trkpt lat="40.303620" lon="-6.458210"><ele>1021.0</ele><time>2008-07-26T09:12:14Z</time></trkpt><trkpt lat="40.303390" lon="-6.458310"><ele>1019.6</ele><time>2008-07-26T09:12:32Z</time></trkpt><trkpt lat="40.303140" lon="-6.458420"><ele>1023.5</ele><time>2008-07-26T09:12:51Z</time></trkpt><trkpt lat="40.302980" lon="-6.458440"><ele>1023.0</ele><time>2008-07-26T09:13:03Z</time></trkpt><trkpt lat="40.302800" lon="-6.458460"><ele>1021.5</ele><time>2008-07-26T09:13:15Z</time></trkpt><trkpt lat="40.302550" lon="-6.458500"><ele>1022.0</ele><time>2008-07-26T09:13:30Z</time></trkpt><trkpt lat="40.302390" lon="-6.458620"><ele>1018.2</ele><time>2008-07-26T09:13:46Z</time></trkpt><trkpt lat="40.302190" lon="-6.458770"><ele>1011.4</ele><time>2008-07-26T09:14:01Z</time></trkpt><trkpt lat="40.302050" lon="-6.458860"><ele>1011.0</ele><time>2008-07-26T09:14:16Z</time></trkpt><trkpt lat="40.301920" lon="-6.458850"><ele>1006.6</ele><time>2008-07-26T09:14:29Z</time></trkpt><trkpt lat="40.301880" lon="-6.458860"><ele>1007.1</ele><time>2008-07-26T09:14:50Z</time></trkpt><trkpt lat="40.301710" lon="-6.458900"><ele>1008.1</ele><time>2008-07-26T09:15:06Z</time></trkpt><trkpt lat="40.301680" lon="-6.458900"><ele>1008.1</ele><time>2008-07-26T09:15:15Z</time></trkpt><trkpt lat="40.301490" lon="-6.458970"><ele>1004.7</ele><time>2008-07-26T09:28:51Z</time></trkpt><trkpt lat="40.301470" lon="-6.458980"><ele>1005.2</ele><time>2008-07-26T09:28:52Z</time></trkpt><trkpt lat="40.301300" lon="-6.459150"><ele>1005.7</ele><time>2008-07-26T09:29:10Z</time></trkpt><trkpt lat="40.301170" lon="-6.459290"><ele>1004.2</ele><time>2008-07-26T09:29:23Z</time></trkpt><trkpt lat="40.301070" lon="-6.459400"><ele>1002.8</ele><time>2008-07-26T09:29:35Z</time></trkpt><trkpt lat="40.300900" lon="-6.459470"><ele>1000.9</ele><time>2008-07-26T09:29:49Z</time></trkpt><trkpt lat="40.300710" lon="-6.459440"><ele>1005.2</ele><time>2008-07-26T09:30:02Z</time></trkpt><trkpt lat="40.300530" lon="-6.459410"><ele>1006.6</ele><time>2008-07-26T09:30:18Z</time></trkpt><trkpt lat="40.300410" lon="-6.459410"><ele>1002.3</ele><time>2008-07-26T09:30:40Z</time></trkpt><trkpt lat="40.300240" lon="-6.459410"><ele>999.9</ele><time>2008-07-26T09:30:55Z</time></trkpt><trkpt lat="40.300060" lon="-6.459380"><ele>996.1</ele><time>2008-07-26T09:31:10Z</time></trkpt><trkpt lat="40.299890" lon="-6.459230"><ele>992.2</ele><time>2008-07-26T09:31:26Z</time></trkpt><trkpt lat="40.299720" lon="-6.459120"><ele>991.3</ele><time>2008-07-26T09:31:42Z</time></trkpt><trkpt lat="40.299540" lon="-6.459050"><ele>992.2</ele><time>2008-07-26T09:31:54Z</time></trkpt><trkpt lat="40.299300" lon="-6.459080"><ele>993.2</ele><time>2008-07-26T09:32:13Z</time></trkpt><trkpt lat="40.299170" lon="-6.459180"><ele>990.8</ele><time>2008-07-26T09:32:25Z</time></trkpt><trkpt lat="40.299060" lon="-6.459400"><ele>989.8</ele><time>2008-07-26T09:32:40Z</time></trkpt><trkpt lat="40.299020" lon="-6.459610"><ele>989.3</ele><time>2008-07-26T09:32:52Z</time></trkpt><trkpt lat="40.298980" lon="-6.459870"><ele>987.9</ele><time>2008-07-26T09:33:09Z</time></trkpt><trkpt lat="40.298940" lon="-6.460070"><ele>987.4</ele><time>2008-07-26T09:33:18Z</time></trkpt><trkpt lat="40.298990" lon="-6.460100"><ele>986.9</ele><time>2008-07-26T09:33:22Z</time></trkpt><trkpt lat="40.298940" lon="-6.460440"><ele>984.0</ele><time>2008-07-26T09:33:44Z</time></trkpt><trkpt lat="40.298890" lon="-6.460800"><ele>983.6</ele><time>2008-07-26T09:34:01Z</time></trkpt><trkpt lat="40.298840" lon="-6.461060"><ele>981.2</ele><time>2008-07-26T09:34:16Z</time></trkpt><trkpt lat="40.298740" lon="-6.461370"><ele>976.4</ele><time>2008-07-26T09:34:35Z</time></trkpt><trkpt lat="40.298600" lon="-6.461540"><ele>975.9</ele><time>2008-07-26T09:34:47Z</time></trkpt><trkpt lat="40.298440" lon="-6.461730"><ele>977.3</ele><time>2008-07-26T09:35:02Z</time></trkpt><trkpt lat="40.298270" lon="-6.461890"><ele>975.9</ele><time>2008-07-26T09:35:17Z</time></trkpt><trkpt lat="40.298080" lon="-6.461880"><ele>975.4</ele><time>2008-07-26T09:35:29Z</time></trkpt><trkpt lat="40.297890" lon="-6.461730"><ele>978.3</ele><time>2008-07-26T09:35:45Z</time></trkpt><trkpt lat="40.297720" lon="-6.461580"><ele>980.7</ele><time>2008-07-26T09:35:59Z</time></trkpt><trkpt lat="40.297530" lon="-6.461480"><ele>981.2</ele><time>2008-07-26T09:36:12Z</time></trkpt><trkpt lat="40.297290" lon="-6.461430"><ele>979.2</ele><time>2008-07-26T09:36:28Z</time></trkpt><trkpt lat="40.297050" lon="-6.461420"><ele>974.4</ele><time>2008-07-26T09:36:45Z</time></trkpt><trkpt lat="40.296840" lon="-6.461500"><ele>974.4</ele><time>2008-07-26T09:36:59Z</time></trkpt><trkpt lat="40.296690" lon="-6.461660"><ele>973.5</ele><time>2008-07-26T09:37:13Z</time></trkpt><trkpt lat="40.296600" lon="-6.461810"><ele>973.5</ele><time>2008-07-26T09:37:25Z</time></trkpt><trkpt lat="40.296510" lon="-6.462080"><ele>974.0</ele><time>2008-07-26T09:37:40Z</time></trkpt><trkpt lat="40.296450" lon="-6.462250"><ele>973.0</ele><time>2008-07-26T09:37:53Z</time></trkpt><trkpt lat="40.296330" lon="-6.462420"><ele>972.0</ele><time>2008-07-26T09:38:06Z</time></trkpt><trkpt lat="40.296150" lon="-6.462540"><ele>970.6</ele><time>2008-07-26T09:38:20Z</time></trkpt><trkpt lat="40.295970" lon="-6.462630"><ele>972.5</ele><time>2008-07-26T09:38:34Z</time></trkpt><trkpt lat="40.295780" lon="-6.462710"><ele>974.4</ele><time>2008-07-26T09:38:46Z</time></trkpt><trkpt lat="40.295610" lon="-6.462790"><ele>975.9</ele><time>2008-07-26T09:39:00Z</time></trkpt><trkpt lat="40.295410" lon="-6.462810"><ele>972.5</ele><time>2008-07-26T09:39:14Z</time></trkpt><trkpt lat="40.295210" lon="-6.462840"><ele>970.1</ele><time>2008-07-26T09:39:29Z</time></trkpt><trkpt lat="40.295010" lon="-6.462870"><ele>971.1</ele><time>2008-07-26T09:39:45Z</time></trkpt><trkpt lat="40.294800" lon="-6.462950"><ele>970.1</ele><time>2008-07-26T09:40:02Z</time></trkpt><trkpt lat="40.294620" lon="-6.463090"><ele>972.0</ele><time>2008-07-26T09:40:17Z</time></trkpt><trkpt lat="40.294410" lon="-6.463240"><ele>963.9</ele><time>2008-07-26T09:40:33Z</time></trkpt><trkpt lat="40.294240" lon="-6.463280"><ele>966.7</ele><time>2008-07-26T09:40:46Z</time></trkpt><trkpt lat="40.294000" lon="-6.463340"><ele>968.2</ele><time>2008-07-26T09:41:02Z</time></trkpt><trkpt lat="40.293820" lon="-6.463380"><ele>967.7</ele><time>2008-07-26T09:41:16Z</time></trkpt><trkpt lat="40.293660" lon="-6.463450"><ele>967.2</ele><time>2008-07-26T09:41:29Z</time></trkpt><trkpt lat="40.293450" lon="-6.463590"><ele>969.1</ele><time>2008-07-26T09:41:46Z</time></trkpt><trkpt lat="40.293300" lon="-6.463750"><ele>969.1</ele><time>2008-07-26T09:41:59Z</time></trkpt><trkpt lat="40.293190" lon="-6.463860"><ele>968.7</ele><time>2008-07-26T09:42:13Z</time></trkpt><trkpt lat="40.292970" lon="-6.463960"><ele>965.8</ele><time>2008-07-26T09:42:30Z</time></trkpt><trkpt lat="40.292720" lon="-6.464060"><ele>967.7</ele><time>2008-07-26T09:42:48Z</time></trkpt><trkpt lat="40.292500" lon="-6.464120"><ele>966.3</ele><time>2008-07-26T09:43:04Z</time></trkpt><trkpt lat="40.292250" lon="-6.464150"><ele>967.2</ele><time>2008-07-26T09:43:20Z</time></trkpt><trkpt lat="40.292040" lon="-6.464180"><ele>969.1</ele><time>2008-07-26T09:43:35Z</time></trkpt><trkpt lat="40.291780" lon="-6.464200"><ele>968.2</ele><time>2008-07-26T09:43:51Z</time></trkpt><trkpt lat="40.291580" lon="-6.464230"><ele>968.7</ele><time>2008-07-26T09:44:06Z</time></trkpt><trkpt lat="40.291370" lon="-6.464220"><ele>968.7</ele><time>2008-07-26T09:44:22Z</time></trkpt><trkpt lat="40.291130" lon="-6.464170"><ele>968.7</ele><time>2008-07-26T09:44:37Z</time></trkpt><trkpt lat="40.290940" lon="-6.464140"><ele>965.8</ele><time>2008-07-26T09:44:52Z</time></trkpt><trkpt lat="40.290730" lon="-6.464130"><ele>966.7</ele><time>2008-07-26T09:45:08Z</time></trkpt><trkpt lat="40.290490" lon="-6.464190"><ele>964.8</ele><time>2008-07-26T09:45:23Z</time></trkpt><trkpt lat="40.290250" lon="-6.464310"><ele>967.2</ele><time>2008-07-26T09:45:39Z</time></trkpt><trkpt lat="40.290090" lon="-6.464420"><ele>968.2</ele><time>2008-07-26T09:45:54Z</time></trkpt><trkpt lat="40.289990" lon="-6.464470"><ele>968.2</ele><time>2008-07-26T09:46:05Z</time></trkpt><trkpt lat="40.289880" lon="-6.464530"><ele>971.5</ele><time>2008-07-26T09:46:21Z</time></trkpt><trkpt lat="40.289620" lon="-6.464580"><ele>968.2</ele><time>2008-07-26T09:46:39Z</time></trkpt><trkpt lat="40.289420" lon="-6.464570"><ele>970.1</ele><time>2008-07-26T09:46:52Z</time></trkpt><trkpt lat="40.289200" lon="-6.464590"><ele>971.5</ele><time>2008-07-26T09:47:08Z</time></trkpt><trkpt lat="40.288990" lon="-6.464680"><ele>972.0</ele><time>2008-07-26T09:47:23Z</time></trkpt><trkpt lat="40.288830" lon="-6.464770"><ele>972.5</ele><time>2008-07-26T09:47:35Z</time></trkpt><trkpt lat="40.288650" lon="-6.464920"><ele>974.4</ele><time>2008-07-26T09:47:50Z</time></trkpt><trkpt lat="40.288510" lon="-6.465040"><ele>975.4</ele><time>2008-07-26T09:48:02Z</time></trkpt><trkpt lat="40.288420" lon="-6.465110"><ele>979.7</ele><time>2008-07-26T09:48:17Z</time></trkpt><trkpt lat="40.288400" lon="-6.465120"><ele>975.9</ele><time>2008-07-26T09:48:29Z</time></trkpt><trkpt lat="40.288310" lon="-6.465250"><ele>979.7</ele><time>2008-07-26T09:48:41Z</time></trkpt><trkpt lat="40.288160" lon="-6.465420"><ele>976.8</ele><time>2008-07-26T09:48:59Z</time></trkpt><trkpt lat="40.287960" lon="-6.465520"><ele>974.9</ele><time>2008-07-26T09:49:15Z</time></trkpt><trkpt lat="40.287760" lon="-6.465620"><ele>974.4</ele><time>2008-07-26T09:49:30Z</time></trkpt><trkpt lat="40.287560" lon="-6.465710"><ele>974.9</ele><time>2008-07-26T09:49:44Z</time></trkpt><trkpt lat="40.287320" lon="-6.465870"><ele>974.0</ele><time>2008-07-26T09:50:01Z</time></trkpt><trkpt lat="40.287120" lon="-6.466000"><ele>974.4</ele><time>2008-07-26T09:50:17Z</time></trkpt><trkpt lat="40.286890" lon="-6.466120"><ele>971.5</ele><time>2008-07-26T09:50:36Z</time></trkpt><trkpt lat="40.286660" lon="-6.466170"><ele>968.2</ele><time>2008-07-26T09:50:54Z</time></trkpt><trkpt lat="40.286460" lon="-6.466210"><ele>966.3</ele><time>2008-07-26T09:51:10Z</time></trkpt><trkpt lat="40.286210" lon="-6.466280"><ele>963.4</ele><time>2008-07-26T09:51:33Z</time></trkpt><trkpt lat="40.286070" lon="-6.466330"><ele>961.9</ele><time>2008-07-26T09:51:46Z</time></trkpt><trkpt lat="40.286010" lon="-6.466380"><ele>960.5</ele><time>2008-07-26T09:52:03Z</time></trkpt><trkpt lat="40.285960" lon="-6.466390"><ele>960.0</ele><time>2008-07-26T09:52:12Z</time></trkpt><trkpt lat="40.285800" lon="-6.466450"><ele>959.5</ele><time>2008-07-26T09:52:28Z</time></trkpt><trkpt lat="40.285600" lon="-6.466580"><ele>953.8</ele><time>2008-07-26T09:52:43Z</time></trkpt><trkpt lat="40.285390" lon="-6.466720"><ele>953.3</ele><time>2008-07-26T09:52:58Z</time></trkpt><trkpt lat="40.285210" lon="-6.466780"><ele>954.2</ele><time>2008-07-26T09:53:10Z</time></trkpt><trkpt lat="40.285030" lon="-6.466760"><ele>954.7</ele><time>2008-07-26T09:53:25Z</time></trkpt><trkpt lat="40.284920" lon="-6.466750"><ele>952.8</ele><time>2008-07-26T09:53:33Z</time></trkpt><trkpt lat="40.284690" lon="-6.466770"><ele>950.4</ele><time>2008-07-26T09:53:49Z</time></trkpt><trkpt lat="40.284620" lon="-6.466770"><ele>950.9</ele><time>2008-07-26T09:53:53Z</time></trkpt><trkpt lat="40.284560" lon="-6.466830"><ele>949.0</ele><time>2008-07-26T09:53:57Z</time></trkpt><trkpt lat="40.284380" lon="-6.467020"><ele>949.0</ele><time>2008-07-26T09:54:14Z</time></trkpt><trkpt lat="40.284200" lon="-6.467200"><ele>948.5</ele><time>2008-07-26T09:54:30Z</time></trkpt><trkpt lat="40.284010" lon="-6.467290"><ele>948.5</ele><time>2008-07-26T09:54:43Z</time></trkpt><trkpt lat="40.283750" lon="-6.467280"><ele>948.0</ele><time>2008-07-26T09:55:02Z</time></trkpt><trkpt lat="40.283490" lon="-6.467240"><ele>946.6</ele><time>2008-07-26T09:55:21Z</time></trkpt><trkpt lat="40.283250" lon="-6.467270"><ele>949.0</ele><time>2008-07-26T09:55:37Z</time></trkpt><trkpt lat="40.283050" lon="-6.467380"><ele>949.9</ele><time>2008-07-26T09:55:53Z</time></trkpt><trkpt lat="40.282980" lon="-6.467500"><ele>946.6</ele><time>2008-07-26T09:56:04Z</time></trkpt><trkpt lat="40.282950" lon="-6.467610"><ele>950.4</ele><time>2008-07-26T09:56:18Z</time></trkpt><trkpt lat="40.282870" lon="-6.467830"><ele>948.5</ele><time>2008-07-26T09:56:31Z</time></trkpt><trkpt lat="40.282770" lon="-6.468010"><ele>948.5</ele><time>2008-07-26T09:56:42Z</time></trkpt><trkpt lat="40.282630" lon="-6.468210"><ele>949.5</ele><time>2008-07-26T09:56:57Z</time></trkpt><trkpt lat="40.282480" lon="-6.468300"><ele>949.9</ele><time>2008-07-26T09:57:09Z</time></trkpt><trkpt lat="40.282300" lon="-6.468360"><ele>951.4</ele><time>2008-07-26T09:57:23Z</time></trkpt><trkpt lat="40.282120" lon="-6.468420"><ele>953.3</ele><time>2008-07-26T09:57:36Z</time></trkpt><trkpt lat="40.281870" lon="-6.468510"><ele>955.2</ele><time>2008-07-26T09:57:54Z</time></trkpt><trkpt lat="40.281650" lon="-6.468630"><ele>956.6</ele><time>2008-07-26T09:58:11Z</time></trkpt><trkpt lat="40.281500" lon="-6.468790"><ele>956.2</ele><time>2008-07-26T09:58:25Z</time></trkpt><trkpt lat="40.281340" lon="-6.468960"><ele>953.3</ele><time>2008-07-26T09:58:39Z</time></trkpt><trkpt lat="40.281180" lon="-6.469130"><ele>952.3</ele><time>2008-07-26T09:58:56Z</time></trkpt><trkpt lat="40.280960" lon="-6.469300"><ele>953.3</ele><time>2008-07-26T09:59:12Z</time></trkpt><trkpt lat="40.280750" lon="-6.469430"><ele>954.2</ele><time>2008-07-26T09:59:28Z</time></trkpt><trkpt lat="40.280610" lon="-6.469530"><ele>954.2</ele><time>2008-07-26T09:59:40Z</time></trkpt><trkpt lat="40.280470" lon="-6.469690"><ele>955.2</ele><time>2008-07-26T09:59:52Z</time></trkpt><trkpt lat="40.280380" lon="-6.469860"><ele>952.3</ele><time>2008-07-26T10:00:03Z</time></trkpt><trkpt lat="40.280320" lon="-6.470100"><ele>952.8</ele><time>2008-07-26T10:00:18Z</time></trkpt><trkpt lat="40.280340" lon="-6.470370"><ele>952.8</ele><time>2008-07-26T10:00:33Z</time></trkpt><trkpt lat="40.280370" lon="-6.470620"><ele>953.8</ele><time>2008-07-26T10:00:46Z</time></trkpt><trkpt lat="40.280340" lon="-6.470890"><ele>951.4</ele><time>2008-07-26T10:01:01Z</time></trkpt><trkpt lat="40.280270" lon="-6.471150"><ele>951.4</ele><time>2008-07-26T10:01:15Z</time></trkpt><trkpt lat="40.280210" lon="-6.471330"><ele>948.0</ele><time>2008-07-26T10:01:28Z</time></trkpt><trkpt lat="40.280090" lon="-6.471590"><ele>946.6</ele><time>2008-07-26T10:01:43Z</time></trkpt><trkpt lat="40.279980" lon="-6.471840"><ele>947.0</ele><time>2008-07-26T10:01:57Z</time></trkpt><trkpt lat="40.279860" lon="-6.472070"><ele>949.9</ele><time>2008-07-26T10:02:10Z</time></trkpt><trkpt lat="40.279720" lon="-6.472290"><ele>948.5</ele><time>2008-07-26T10:02:25Z</time></trkpt><trkpt lat="40.279590" lon="-6.472450"><ele>948.5</ele><time>2008-07-26T10:02:37Z</time></trkpt><trkpt lat="40.279540" lon="-6.472530"><ele>948.0</ele><time>2008-07-26T10:02:49Z</time></trkpt><trkpt lat="40.279470" lon="-6.472580"><ele>947.5</ele><time>2008-07-26T10:03:05Z</time></trkpt><trkpt lat="40.279320" lon="-6.472650"><ele>946.6</ele><time>2008-07-26T10:03:19Z</time></trkpt><trkpt lat="40.279230" lon="-6.472640"><ele>945.6</ele><time>2008-07-26T10:03:32Z</time></trkpt><trkpt lat="40.279110" lon="-6.472680"><ele>947.0</ele><time>2008-07-26T10:03:58Z</time></trkpt><trkpt lat="40.278580" lon="-6.472630"><ele>950.4</ele><time>2008-07-26T10:04:35Z</time></trkpt><trkpt lat="40.278330" lon="-6.472560"><ele>947.5</ele><time>2008-07-26T10:04:52Z</time></trkpt><trkpt lat="40.278100" lon="-6.472540"><ele>943.7</ele><time>2008-07-26T10:05:08Z</time></trkpt><trkpt lat="40.277870" lon="-6.472530"><ele>939.8</ele><time>2008-07-26T10:05:27Z</time></trkpt><trkpt lat="40.277680" lon="-6.472500"><ele>937.9</ele><time>2008-07-26T10:05:42Z</time></trkpt><trkpt lat="40.277430" lon="-6.472520"><ele>939.3</ele><time>2008-07-26T10:06:00Z</time></trkpt><trkpt lat="40.277170" lon="-6.472690"><ele>938.4</ele><time>2008-07-26T10:06:21Z</time></trkpt><trkpt lat="40.277060" lon="-6.472780"><ele>936.5</ele><time>2008-07-26T10:06:36Z</time></trkpt><trkpt lat="40.276950" lon="-6.472870"><ele>930.7</ele><time>2008-07-26T10:06:52Z</time></trkpt><trkpt lat="40.276750" lon="-6.472880"><ele>926.4</ele><time>2008-07-26T10:07:07Z</time></trkpt><trkpt lat="40.276510" lon="-6.472750"><ele>925.4</ele><time>2008-07-26T10:07:25Z</time></trkpt><trkpt lat="40.276300" lon="-6.472590"><ele>924.5</ele><time>2008-07-26T10:07:42Z</time></trkpt><trkpt lat="40.276050" lon="-6.472380"><ele>926.8</ele><time>2008-07-26T10:08:02Z</time></trkpt><trkpt lat="40.275850" lon="-6.472230"><ele>926.4</ele><time>2008-07-26T10:08:20Z</time></trkpt><trkpt lat="40.275710" lon="-6.472120"><ele>924.5</ele><time>2008-07-26T10:08:35Z</time></trkpt><trkpt lat="40.275720" lon="-6.472130"><ele>924.0</ele><time>2008-07-26T10:08:43Z</time></trkpt><trkpt lat="40.275740" lon="-6.472150"><ele>925.4</ele><time>2008-07-26T10:11:32Z</time></trkpt><trkpt lat="40.275700" lon="-6.472130"><ele>925.4</ele><time>2008-07-26T10:11:37Z</time></trkpt><trkpt lat="40.275670" lon="-6.472100"><ele>925.4</ele><time>2008-07-26T10:11:41Z</time></trkpt><trkpt lat="40.275480" lon="-6.471940"><ele>924.9</ele><time>2008-07-26T10:11:59Z</time></trkpt><trkpt lat="40.275320" lon="-6.471780"><ele>923.0</ele><time>2008-07-26T10:12:15Z</time></trkpt><trkpt lat="40.275180" lon="-6.471590"><ele>920.1</ele><time>2008-07-26T10:12:30Z</time></trkpt><trkpt lat="40.275070" lon="-6.471340"><ele>922.1</ele><time>2008-07-26T10:12:46Z</time></trkpt><trkpt lat="40.274990" lon="-6.471120"><ele>919.6</ele><time>2008-07-26T10:12:59Z</time></trkpt><trkpt lat="40.274960" lon="-6.470990"><ele>918.2</ele><time>2008-07-26T10:13:14Z</time></trkpt><trkpt lat="40.274900" lon="-6.470750"><ele>914.3</ele><time>2008-07-26T10:13:29Z</time></trkpt><trkpt lat="40.274810" lon="-6.470520"><ele>913.4</ele><time>2008-07-26T10:13:44Z</time></trkpt><trkpt lat="40.274810" lon="-6.470490"><ele>913.9</ele><time>2008-07-26T10:14:04Z</time></trkpt><trkpt lat="40.274780" lon="-6.470440"><ele>914.3</ele><time>2008-07-26T10:14:22Z</time></trkpt><trkpt lat="40.274770" lon="-6.470430"><ele>914.3</ele><time>2008-07-26T10:14:23Z</time></trkpt><trkpt lat="40.274730" lon="-6.470350"><ele>913.9</ele><time>2008-07-26T10:14:38Z</time></trkpt><trkpt lat="40.274730" lon="-6.470310"><ele>913.9</ele><time>2008-07-26T10:14:41Z</time></trkpt><trkpt lat="40.274700" lon="-6.470150"><ele>912.4</ele><time>2008-07-26T10:14:56Z</time></trkpt><trkpt lat="40.274700" lon="-6.470140"><ele>904.7</ele><time>2008-07-26T10:15:35Z</time></trkpt><trkpt lat="40.274710" lon="-6.470140"><ele>906.7</ele><time>2008-07-26T10:15:52Z</time></trkpt><trkpt lat="40.274700" lon="-6.470170"><ele>912.9</ele><time>2008-07-26T10:17:00Z</time></trkpt><trkpt lat="40.274690" lon="-6.470180"><ele>920.6</ele><time>2008-07-26T10:43:14Z</time></trkpt><trkpt lat="40.274690" lon="-6.470170"><ele>910.0</ele><time>2008-07-26T10:43:34Z</time></trkpt><trkpt lat="40.274690" lon="-6.470190"><ele>911.0</ele><time>2008-07-26T10:46:27Z</time></trkpt><trkpt lat="40.274730" lon="-6.470310"><ele>910.0</ele><time>2008-07-26T10:46:40Z</time></trkpt><trkpt lat="40.274740" lon="-6.470340"><ele>910.5</ele><time>2008-07-26T10:46:54Z</time></trkpt><trkpt lat="40.274780" lon="-6.470540"><ele>911.5</ele><time>2008-07-26T10:47:09Z</time></trkpt><trkpt lat="40.274870" lon="-6.470760"><ele>912.0</ele><time>2008-07-26T10:47:25Z</time></trkpt><trkpt lat="40.274940" lon="-6.470950"><ele>912.9</ele><time>2008-07-26T10:47:37Z</time></trkpt><trkpt lat="40.274990" lon="-6.471010"><ele>913.9</ele><time>2008-07-26T10:47:44Z</time></trkpt><trkpt lat="40.275030" lon="-6.471080"><ele>914.3</ele><time>2008-07-26T10:47:56Z</time></trkpt><trkpt lat="40.275090" lon="-6.471270"><ele>916.3</ele><time>2008-07-26T10:48:12Z</time></trkpt><trkpt lat="40.275150" lon="-6.471460"><ele>918.2</ele><time>2008-07-26T10:48:24Z</time></trkpt><trkpt lat="40.275230" lon="-6.471660"><ele>920.1</ele><time>2008-07-26T10:48:39Z</time></trkpt><trkpt lat="40.275330" lon="-6.471810"><ele>918.7</ele><time>2008-07-26T10:48:51Z</time></trkpt><trkpt lat="40.275500" lon="-6.471950"><ele>920.1</ele><time>2008-07-26T10:49:06Z</time></trkpt><trkpt lat="40.275680" lon="-6.472100"><ele>922.1</ele><time>2008-07-26T10:49:22Z</time></trkpt><trkpt lat="40.275810" lon="-6.472210"><ele>922.1</ele><time>2008-07-26T10:49:35Z</time></trkpt><trkpt lat="40.275950" lon="-6.472340"><ele>922.5</ele><time>2008-07-26T10:49:49Z</time></trkpt><trkpt lat="40.276120" lon="-6.472490"><ele>922.5</ele><time>2008-07-26T10:50:04Z</time></trkpt><trkpt lat="40.276340" lon="-6.472640"><ele>923.5</ele><time>2008-07-26T10:50:19Z</time></trkpt><trkpt lat="40.276540" lon="-6.472750"><ele>923.0</ele><time>2008-07-26T10:50:33Z</time></trkpt><trkpt lat="40.276770" lon="-6.472860"><ele>924.9</ele><time>2008-07-26T10:50:49Z</time></trkpt><trkpt lat="40.277020" lon="-6.472860"><ele>927.3</ele><time>2008-07-26T10:51:05Z</time></trkpt><trkpt lat="40.277210" lon="-6.472680"><ele>927.3</ele><time>2008-07-26T10:51:21Z</time></trkpt><trkpt lat="40.277390" lon="-6.472520"><ele>928.3</ele><time>2008-07-26T10:51:36Z</time></trkpt><trkpt lat="40.277670" lon="-6.472430"><ele>931.2</ele><time>2008-07-26T10:51:54Z</time></trkpt><trkpt lat="40.277910" lon="-6.472460"><ele>930.7</ele><time>2008-07-26T10:52:10Z</time></trkpt><trkpt lat="40.278110" lon="-6.472490"><ele>929.2</ele><time>2008-07-26T10:52:25Z</time></trkpt><trkpt lat="40.278340" lon="-6.472530"><ele>931.2</ele><time>2008-07-26T10:52:39Z</time></trkpt><trkpt lat="40.278550" lon="-6.472570"><ele>935.5</ele><time>2008-07-26T10:52:52Z</time></trkpt><trkpt lat="40.278750" lon="-6.472580"><ele>936.0</ele><time>2008-07-26T10:53:06Z</time></trkpt><trkpt lat="40.278920" lon="-6.472580"><ele>937.4</ele><time>2008-07-26T10:53:20Z</time></trkpt><trkpt lat="40.279140" lon="-6.472590"><ele>939.3</ele><time>2008-07-26T10:53:36Z</time></trkpt><trkpt lat="40.279310" lon="-6.472620"><ele>941.3</ele><time>2008-07-26T10:53:50Z</time></trkpt><trkpt lat="40.279490" lon="-6.472540"><ele>943.2</ele><time>2008-07-26T10:54:03Z</time></trkpt><trkpt lat="40.279630" lon="-6.472340"><ele>944.6</ele><time>2008-07-26T10:54:18Z</time></trkpt><trkpt lat="40.279810" lon="-6.472090"><ele>943.2</ele><time>2008-07-26T10:54:37Z</time></trkpt><trkpt lat="40.280030" lon="-6.471670"><ele>944.6</ele><time>2008-07-26T10:55:07Z</time></trkpt><trkpt lat="40.280110" lon="-6.471440"><ele>946.1</ele><time>2008-07-26T10:55:20Z</time></trkpt><trkpt lat="40.280200" lon="-6.471220"><ele>948.5</ele><time>2008-07-26T10:55:35Z</time></trkpt><trkpt lat="40.280260" lon="-6.470980"><ele>948.0</ele><time>2008-07-26T10:55:47Z</time></trkpt><trkpt lat="40.280320" lon="-6.470720"><ele>948.0</ele><time>2008-07-26T10:56:01Z</time></trkpt><trkpt lat="40.280350" lon="-6.470470"><ele>946.6</ele><time>2008-07-26T10:56:14Z</time></trkpt><trkpt lat="40.280320" lon="-6.470220"><ele>946.6</ele><time>2008-07-26T10:56:28Z</time></trkpt><trkpt lat="40.280330" lon="-6.469980"><ele>947.0</ele><time>2008-07-26T10:56:41Z</time></trkpt><trkpt lat="40.280420" lon="-6.469740"><ele>946.6</ele><time>2008-07-26T10:56:56Z</time></trkpt><trkpt lat="40.280570" lon="-6.469520"><ele>947.0</ele><time>2008-07-26T10:57:12Z</time></trkpt><trkpt lat="40.280740" lon="-6.469370"><ele>947.5</ele><time>2008-07-26T10:57:26Z</time></trkpt><trkpt lat="40.280920" lon="-6.469290"><ele>944.6</ele><time>2008-07-26T10:57:41Z</time></trkpt><trkpt lat="40.281080" lon="-6.469160"><ele>944.1</ele><time>2008-07-26T10:57:54Z</time></trkpt><trkpt lat="40.281260" lon="-6.469020"><ele>943.2</ele><time>2008-07-26T10:58:10Z</time></trkpt><trkpt lat="40.281400" lon="-6.468890"><ele>945.1</ele><time>2008-07-26T10:58:24Z</time></trkpt><trkpt lat="40.281540" lon="-6.468700"><ele>946.6</ele><time>2008-07-26T10:58:37Z</time></trkpt><trkpt lat="40.281690" lon="-6.468560"><ele>946.6</ele><time>2008-07-26T10:58:51Z</time></trkpt><trkpt lat="40.281870" lon="-6.468460"><ele>946.1</ele><time>2008-07-26T10:59:04Z</time></trkpt><trkpt lat="40.282050" lon="-6.468380"><ele>945.1</ele><time>2008-07-26T10:59:18Z</time></trkpt><trkpt lat="40.282250" lon="-6.468310"><ele>943.2</ele><time>2008-07-26T10:59:31Z</time></trkpt><trkpt lat="40.282440" lon="-6.468270"><ele>943.2</ele><time>2008-07-26T10:59:43Z</time></trkpt><trkpt lat="40.282500" lon="-6.468240"><ele>943.2</ele><time>2008-07-26T10:59:47Z</time></trkpt><trkpt lat="40.282550" lon="-6.468240"><ele>942.7</ele><time>2008-07-26T10:59:51Z</time></trkpt><trkpt lat="40.282700" lon="-6.468120"><ele>942.2</ele><time>2008-07-26T11:00:04Z</time></trkpt><trkpt lat="40.282820" lon="-6.467900"><ele>943.7</ele><time>2008-07-26T11:00:17Z</time></trkpt><trkpt lat="40.282940" lon="-6.467610"><ele>944.6</ele><time>2008-07-26T11:00:33Z</time></trkpt><trkpt lat="40.283090" lon="-6.467360"><ele>946.1</ele><time>2008-07-26T11:00:50Z</time></trkpt><trkpt lat="40.283310" lon="-6.467240"><ele>944.6</ele><time>2008-07-26T11:01:04Z</time></trkpt><trkpt lat="40.283510" lon="-6.467210"><ele>943.7</ele><time>2008-07-26T11:01:17Z</time></trkpt><trkpt lat="40.283680" lon="-6.467240"><ele>943.7</ele><time>2008-07-26T11:01:27Z</time></trkpt><trkpt lat="40.283920" lon="-6.467280"><ele>943.2</ele><time>2008-07-26T11:01:42Z</time></trkpt><trkpt lat="40.284160" lon="-6.467220"><ele>944.1</ele><time>2008-07-26T11:01:57Z</time></trkpt><trkpt lat="40.284310" lon="-6.467110"><ele>945.1</ele><time>2008-07-26T11:02:09Z</time></trkpt><trkpt lat="40.284460" lon="-6.466980"><ele>944.1</ele><time>2008-07-26T11:02:24Z</time></trkpt><trkpt lat="40.284540" lon="-6.466870"><ele>945.1</ele><time>2008-07-26T11:02:32Z</time></trkpt><trkpt lat="40.284720" lon="-6.466760"><ele>946.1</ele><time>2008-07-26T11:02:46Z</time></trkpt><trkpt lat="40.284900" lon="-6.466760"><ele>946.1</ele><time>2008-07-26T11:02:58Z</time></trkpt><trkpt lat="40.285080" lon="-6.466760"><ele>944.1</ele><time>2008-07-26T11:03:10Z</time></trkpt><trkpt lat="40.285310" lon="-6.466720"><ele>945.1</ele><time>2008-07-26T11:03:26Z</time></trkpt><trkpt lat="40.285470" lon="-6.466640"><ele>947.0</ele><time>2008-07-26T11:03:38Z</time></trkpt><trkpt lat="40.285640" lon="-6.466570"><ele>948.0</ele><time>2008-07-26T11:03:52Z</time></trkpt><trkpt lat="40.285810" lon="-6.466500"><ele>951.8</ele><time>2008-07-26T11:04:04Z</time></trkpt><trkpt lat="40.285820" lon="-6.466490"><ele>951.8</ele><time>2008-07-26T11:04:04Z</time></trkpt><trkpt lat="40.285880" lon="-6.466420"><ele>953.8</ele><time>2008-07-26T11:04:11Z</time></trkpt><trkpt lat="40.286040" lon="-6.466330"><ele>954.7</ele><time>2008-07-26T11:04:26Z</time></trkpt><trkpt lat="40.286180" lon="-6.466250"><ele>955.7</ele><time>2008-07-26T11:04:38Z</time></trkpt><trkpt lat="40.286400" lon="-6.466190"><ele>957.6</ele><time>2008-07-26T11:04:54Z</time></trkpt><trkpt lat="40.286600" lon="-6.466150"><ele>958.6</ele><time>2008-07-26T11:05:09Z</time></trkpt><trkpt lat="40.286790" lon="-6.466120"><ele>960.0</ele><time>2008-07-26T11:05:22Z</time></trkpt><trkpt lat="40.286990" lon="-6.466080"><ele>960.5</ele><time>2008-07-26T11:05:37Z</time></trkpt><trkpt lat="40.287150" lon="-6.466010"><ele>961.9</ele><time>2008-07-26T11:05:49Z</time></trkpt><trkpt lat="40.287190" lon="-6.465990"><ele>961.9</ele><time>2008-07-26T11:05:52Z</time></trkpt><trkpt lat="40.287360" lon="-6.465850"><ele>963.9</ele><time>2008-07-26T11:06:05Z</time></trkpt><trkpt lat="40.287570" lon="-6.465720"><ele>966.3</ele><time>2008-07-26T11:06:23Z</time></trkpt><trkpt lat="40.287760" lon="-6.465600"><ele>966.7</ele><time>2008-07-26T11:06:38Z</time></trkpt><trkpt lat="40.287970" lon="-6.465510"><ele>967.2</ele><time>2008-07-26T11:06:53Z</time></trkpt><trkpt lat="40.288120" lon="-6.465400"><ele>966.3</ele><time>2008-07-26T11:07:05Z</time></trkpt><trkpt lat="40.288290" lon="-6.465220"><ele>966.7</ele><time>2008-07-26T11:07:21Z</time></trkpt><trkpt lat="40.288470" lon="-6.465010"><ele>968.7</ele><time>2008-07-26T11:07:37Z</time></trkpt><trkpt lat="40.288680" lon="-6.464860"><ele>968.2</ele><time>2008-07-26T11:07:55Z</time></trkpt><trkpt lat="40.288840" lon="-6.464780"><ele>967.7</ele><time>2008-07-26T11:08:07Z</time></trkpt><trkpt lat="40.289010" lon="-6.464640"><ele>967.7</ele><time>2008-07-26T11:08:23Z</time></trkpt><trkpt lat="40.289230" lon="-6.464550"><ele>969.1</ele><time>2008-07-26T11:08:38Z</time></trkpt><trkpt lat="40.289440" lon="-6.464540"><ele>968.2</ele><time>2008-07-26T11:08:51Z</time></trkpt><trkpt lat="40.289600" lon="-6.464530"><ele>967.2</ele><time>2008-07-26T11:09:04Z</time></trkpt><trkpt lat="40.289800" lon="-6.464550"><ele>964.8</ele><time>2008-07-26T11:09:18Z</time></trkpt><trkpt lat="40.290000" lon="-6.464500"><ele>965.8</ele><time>2008-07-26T11:09:32Z</time></trkpt><trkpt lat="40.290150" lon="-6.464370"><ele>964.3</ele><time>2008-07-26T11:09:45Z</time></trkpt><trkpt lat="40.290280" lon="-6.464300"><ele>964.3</ele><time>2008-07-26T11:09:56Z</time></trkpt><trkpt lat="40.290430" lon="-6.464220"><ele>964.8</ele><time>2008-07-26T11:10:08Z</time></trkpt><trkpt lat="40.290640" lon="-6.464150"><ele>963.9</ele><time>2008-07-26T11:10:25Z</time></trkpt><trkpt lat="40.290910" lon="-6.464110"><ele>960.5</ele><time>2008-07-26T11:10:45Z</time></trkpt><trkpt lat="40.291000" lon="-6.464090"><ele>960.0</ele><time>2008-07-26T11:10:53Z</time></trkpt><trkpt lat="40.291190" lon="-6.464080"><ele>960.0</ele><time>2008-07-26T11:11:08Z</time></trkpt><trkpt lat="40.291400" lon="-6.464140"><ele>961.9</ele><time>2008-07-26T11:11:23Z</time></trkpt><trkpt lat="40.291580" lon="-6.464150"><ele>962.9</ele><time>2008-07-26T11:11:36Z</time></trkpt><trkpt lat="40.291800" lon="-6.464170"><ele>963.4</ele><time>2008-07-26T11:11:51Z</time></trkpt><trkpt lat="40.292000" lon="-6.464130"><ele>963.9</ele><time>2008-07-26T11:12:05Z</time></trkpt><trkpt lat="40.292190" lon="-6.464140"><ele>962.9</ele><time>2008-07-26T11:12:18Z</time></trkpt><trkpt lat="40.292380" lon="-6.464140"><ele>963.4</ele><time>2008-07-26T11:12:30Z</time></trkpt><trkpt lat="40.292550" lon="-6.464100"><ele>962.4</ele><time>2008-07-26T11:12:42Z</time></trkpt><trkpt lat="40.292760" lon="-6.464010"><ele>962.9</ele><time>2008-07-26T11:12:57Z</time></trkpt><trkpt lat="40.292940" lon="-6.463960"><ele>963.9</ele><time>2008-07-26T11:13:11Z</time></trkpt><trkpt lat="40.293170" lon="-6.463880"><ele>964.3</ele><time>2008-07-26T11:13:26Z</time></trkpt><trkpt lat="40.293350" lon="-6.463750"><ele>963.4</ele><time>2008-07-26T11:13:40Z</time></trkpt><trkpt lat="40.293540" lon="-6.463530"><ele>965.8</ele><time>2008-07-26T11:13:58Z</time></trkpt><trkpt lat="40.293740" lon="-6.463350"><ele>965.3</ele><time>2008-07-26T11:14:14Z</time></trkpt><trkpt lat="40.293960" lon="-6.463300"><ele>964.3</ele><time>2008-07-26T11:14:29Z</time></trkpt><trkpt lat="40.294180" lon="-6.463280"><ele>964.8</ele><time>2008-07-26T11:14:42Z</time></trkpt><trkpt lat="40.294370" lon="-6.463240"><ele>961.5</ele><time>2008-07-26T11:14:56Z</time></trkpt><trkpt lat="40.294610" lon="-6.463140"><ele>963.4</ele><time>2008-07-26T11:15:12Z</time></trkpt><trkpt lat="40.294800" lon="-6.463000"><ele>963.9</ele><time>2008-07-26T11:15:26Z</time></trkpt><trkpt lat="40.294980" lon="-6.462860"><ele>965.3</ele><time>2008-07-26T11:15:39Z</time></trkpt><trkpt lat="40.295160" lon="-6.462790"><ele>965.8</ele><time>2008-07-26T11:15:53Z</time></trkpt><trkpt lat="40.295370" lon="-6.462770"><ele>966.3</ele><time>2008-07-26T11:16:06Z</time></trkpt><trkpt lat="40.295550" lon="-6.462730"><ele>969.1</ele><time>2008-07-26T11:16:18Z</time></trkpt><trkpt lat="40.295770" lon="-6.462680"><ele>969.6</ele><time>2008-07-26T11:16:33Z</time></trkpt><trkpt lat="40.295980" lon="-6.462610"><ele>970.6</ele><time>2008-07-26T11:16:48Z</time></trkpt><trkpt lat="40.296040" lon="-6.462590"><ele>970.6</ele><time>2008-07-26T11:16:52Z</time></trkpt><trkpt lat="40.296140" lon="-6.462570"><ele>969.1</ele><time>2008-07-26T11:17:00Z</time></trkpt><trkpt lat="40.296290" lon="-6.462490"><ele>971.5</ele><time>2008-07-26T11:17:11Z</time></trkpt><trkpt lat="40.296410" lon="-6.462350"><ele>972.5</ele><time>2008-07-26T11:17:23Z</time></trkpt><trkpt lat="40.296550" lon="-6.462100"><ele>973.0</ele><time>2008-07-26T11:17:38Z</time></trkpt><trkpt lat="40.296630" lon="-6.461910"><ele>973.5</ele><time>2008-07-26T11:17:50Z</time></trkpt><trkpt lat="40.296750" lon="-6.461690"><ele>975.4</ele><time>2008-07-26T11:18:04Z</time></trkpt><trkpt lat="40.296880" lon="-6.461500"><ele>976.8</ele><time>2008-07-26T11:18:14Z</time></trkpt><trkpt lat="40.297060" lon="-6.461420"><ele>976.4</ele><time>2008-07-26T11:18:28Z</time></trkpt><trkpt lat="40.297290" lon="-6.461420"><ele>975.9</ele><time>2008-07-26T11:18:43Z</time></trkpt><trkpt lat="40.297530" lon="-6.461460"><ele>974.4</ele><time>2008-07-26T11:18:56Z</time></trkpt><trkpt lat="40.297750" lon="-6.461540"><ele>977.8</ele><time>2008-07-26T11:19:10Z</time></trkpt><trkpt lat="40.297980" lon="-6.461710"><ele>976.8</ele><time>2008-07-26T11:19:25Z</time></trkpt><trkpt lat="40.298100" lon="-6.461830"><ele>974.9</ele><time>2008-07-26T11:19:37Z</time></trkpt><trkpt lat="40.298270" lon="-6.461900"><ele>974.0</ele><time>2008-07-26T11:19:49Z</time></trkpt><trkpt lat="40.298450" lon="-6.461710"><ele>973.5</ele><time>2008-07-26T11:20:05Z</time></trkpt><trkpt lat="40.298600" lon="-6.461520"><ele>973.0</ele><time>2008-07-26T11:20:19Z</time></trkpt><trkpt lat="40.298740" lon="-6.461300"><ele>975.4</ele><time>2008-07-26T11:20:35Z</time></trkpt><trkpt lat="40.298790" lon="-6.461070"><ele>975.9</ele><time>2008-07-26T11:20:47Z</time></trkpt><trkpt lat="40.298820" lon="-6.460820"><ele>975.4</ele><time>2008-07-26T11:21:00Z</time></trkpt><trkpt lat="40.298860" lon="-6.460600"><ele>975.9</ele><time>2008-07-26T11:21:14Z</time></trkpt><trkpt lat="40.298870" lon="-6.460350"><ele>979.7</ele><time>2008-07-26T11:21:26Z</time></trkpt><trkpt lat="40.298910" lon="-6.460120"><ele>981.2</ele><time>2008-07-26T11:21:40Z</time></trkpt><trkpt lat="40.298930" lon="-6.460030"><ele>982.6</ele><time>2008-07-26T11:21:45Z</time></trkpt><trkpt lat="40.299000" lon="-6.459830"><ele>982.1</ele><time>2008-07-26T11:21:59Z</time></trkpt><trkpt lat="40.299040" lon="-6.459580"><ele>985.5</ele><time>2008-07-26T11:22:12Z</time></trkpt><trkpt lat="40.299080" lon="-6.459350"><ele>987.9</ele><time>2008-07-26T11:22:24Z</time></trkpt><trkpt lat="40.299100" lon="-6.459280"><ele>989.3</ele><time>2008-07-26T11:22:28Z</time></trkpt><trkpt lat="40.299230" lon="-6.459090"><ele>989.3</ele><time>2008-07-26T11:22:43Z</time></trkpt><trkpt lat="40.299250" lon="-6.459080"><ele>989.3</ele><time>2008-07-26T11:22:44Z</time></trkpt><trkpt lat="40.299440" lon="-6.459000"><ele>990.3</ele><time>2008-07-26T11:22:59Z</time></trkpt><trkpt lat="40.299600" lon="-6.458990"><ele>991.3</ele><time>2008-07-26T11:23:11Z</time></trkpt><trkpt lat="40.299790" lon="-6.459110"><ele>992.2</ele><time>2008-07-26T11:23:25Z</time></trkpt><trkpt lat="40.299810" lon="-6.459120"><ele>991.7</ele><time>2008-07-26T11:23:33Z</time></trkpt><trkpt lat="40.299950" lon="-6.459220"><ele>989.8</ele><time>2008-07-26T11:23:42Z</time></trkpt><trkpt lat="40.300130" lon="-6.459350"><ele>991.3</ele><time>2008-07-26T11:23:57Z</time></trkpt><trkpt lat="40.300390" lon="-6.459400"><ele>995.6</ele><time>2008-07-26T11:24:16Z</time></trkpt><trkpt lat="40.300570" lon="-6.459400"><ele>995.1</ele><time>2008-07-26T11:24:31Z</time></trkpt><trkpt lat="40.300770" lon="-6.459430"><ele>995.1</ele><time>2008-07-26T11:24:46Z</time></trkpt><trkpt lat="40.301000" lon="-6.459460"><ele>997.0</ele><time>2008-07-26T11:24:59Z</time></trkpt><trkpt lat="40.301150" lon="-6.459330"><ele>998.0</ele><time>2008-07-26T11:25:13Z</time></trkpt><trkpt lat="40.301330" lon="-6.459150"><ele>998.0</ele><time>2008-07-26T11:25:29Z</time></trkpt><trkpt lat="40.301510" lon="-6.459000"><ele>999.0</ele><time>2008-07-26T11:25:44Z</time></trkpt><trkpt lat="40.301700" lon="-6.458920"><ele>1000.9</ele><time>2008-07-26T11:25:59Z</time></trkpt><trkpt lat="40.301890" lon="-6.458890"><ele>1001.4</ele><time>2008-07-26T11:26:11Z</time></trkpt><trkpt lat="40.301970" lon="-6.458890"><ele>1001.8</ele><time>2008-07-26T11:26:23Z</time></trkpt><trkpt lat="40.302030" lon="-6.458890"><ele>1002.8</ele><time>2008-07-26T11:26:30Z</time></trkpt><trkpt lat="40.302200" lon="-6.458830"><ele>1003.8</ele><time>2008-07-26T11:26:43Z</time></trkpt><trkpt lat="40.302350" lon="-6.458680"><ele>1005.2</ele><time>2008-07-26T11:26:58Z</time></trkpt><trkpt lat="40.302530" lon="-6.458540"><ele>1006.1</ele><time>2008-07-26T11:27:13Z</time></trkpt><trkpt lat="40.302710" lon="-6.458440"><ele>1007.6</ele><time>2008-07-26T11:27:28Z</time></trkpt><trkpt lat="40.302910" lon="-6.458420"><ele>1009.0</ele><time>2008-07-26T11:27:43Z</time></trkpt><trkpt lat="40.303010" lon="-6.458460"><ele>1008.1</ele><time>2008-07-26T11:27:54Z</time></trkpt><trkpt lat="40.303200" lon="-6.458410"><ele>1010.0</ele><time>2008-07-26T11:28:10Z</time></trkpt><trkpt lat="40.303300" lon="-6.458350"><ele>1011.9</ele><time>2008-07-26T11:28:22Z</time></trkpt><trkpt lat="40.303310" lon="-6.458320"><ele>1012.4</ele><time>2008-07-26T11:28:46Z</time></trkpt><trkpt lat="40.303340" lon="-6.458350"><ele>1011.0</ele><time>2008-07-26T11:29:25Z</time></trkpt><trkpt lat="40.303450" lon="-6.458290"><ele>1011.0</ele><time>2008-07-26T11:29:38Z</time></trkpt><trkpt lat="40.303670" lon="-6.458180"><ele>1010.5</ele><time>2008-07-26T11:29:55Z</time></trkpt><trkpt lat="40.303850" lon="-6.458070"><ele>1010.0</ele><time>2008-07-26T11:30:10Z</time></trkpt><trkpt lat="40.304280" lon="-6.457760"><ele>1011.4</ele><time>2008-07-26T11:30:45Z</time></trkpt><trkpt lat="40.304500" lon="-6.457800"><ele>1012.9</ele><time>2008-07-26T11:30:57Z</time></trkpt><trkpt lat="40.304690" lon="-6.457800"><ele>1013.9</ele><time>2008-07-26T11:31:09Z</time></trkpt><trkpt lat="40.304870" lon="-6.457800"><ele>1017.2</ele><time>2008-07-26T11:31:20Z</time></trkpt><trkpt lat="40.304990" lon="-6.457810"><ele>1014.8</ele><time>2008-07-26T11:31:34Z</time></trkpt><trkpt lat="40.305080" lon="-6.457830"><ele>1013.9</ele><time>2008-07-26T11:31:55Z</time></trkpt><trkpt lat="40.305330" lon="-6.457910"><ele>1013.4</ele><time>2008-07-26T11:32:10Z</time></trkpt><trkpt lat="40.305530" lon="-6.457990"><ele>1013.4</ele><time>2008-07-26T11:32:25Z</time></trkpt><trkpt lat="40.305800" lon="-6.458080"><ele>1012.9</ele><time>2008-07-26T11:32:42Z</time></trkpt><trkpt lat="40.306060" lon="-6.458140"><ele>1012.9</ele><time>2008-07-26T11:33:00Z</time></trkpt><trkpt lat="40.306360" lon="-6.458130"><ele>1013.4</ele><time>2008-07-26T11:33:19Z</time></trkpt><trkpt lat="40.306570" lon="-6.458110"><ele>1012.4</ele><time>2008-07-26T11:33:35Z</time></trkpt><trkpt lat="40.307070" lon="-6.458170"><ele>1010.0</ele><time>2008-07-26T11:34:09Z</time></trkpt><trkpt lat="40.307320" lon="-6.458300"><ele>1008.6</ele><time>2008-07-26T11:34:26Z</time></trkpt><trkpt lat="40.307530" lon="-6.458400"><ele>1008.1</ele><time>2008-07-26T11:34:41Z</time></trkpt><trkpt lat="40.307800" lon="-6.458520"><ele>1007.6</ele><time>2008-07-26T11:35:00Z</time></trkpt><trkpt lat="40.308030" lon="-6.458600"><ele>1009.0</ele><time>2008-07-26T11:35:15Z</time></trkpt><trkpt lat="40.308310" lon="-6.458710"><ele>1008.1</ele><time>2008-07-26T11:35:33Z</time></trkpt><trkpt lat="40.308560" lon="-6.458820"><ele>1011.0</ele><time>2008-07-26T11:35:47Z</time></trkpt><trkpt lat="40.308800" lon="-6.458950"><ele>1009.5</ele><time>2008-07-26T11:36:05Z</time></trkpt><trkpt lat="40.308940" lon="-6.458980"><ele>1010.0</ele><time>2008-07-26T11:36:20Z</time></trkpt><trkpt lat="40.309130" lon="-6.459050"><ele>1011.0</ele><time>2008-07-26T11:36:36Z</time></trkpt><trkpt lat="40.309330" lon="-6.459070"><ele>1010.5</ele><time>2008-07-26T11:36:52Z</time></trkpt><trkpt lat="40.309540" lon="-6.459080"><ele>1007.6</ele><time>2008-07-26T11:37:08Z</time></trkpt><trkpt lat="40.309780" lon="-6.459150"><ele>1007.6</ele><time>2008-07-26T11:37:26Z</time></trkpt><trkpt lat="40.310000" lon="-6.459210"><ele>1005.7</ele><time>2008-07-26T11:37:42Z</time></trkpt><trkpt lat="40.310140" lon="-6.459250"><ele>1004.7</ele><time>2008-07-26T11:37:54Z</time></trkpt><trkpt lat="40.310360" lon="-6.459320"><ele>1003.8</ele><time>2008-07-26T11:38:12Z</time></trkpt><trkpt lat="40.310860" lon="-6.459610"><ele>1004.7</ele><time>2008-07-26T11:38:44Z</time></trkpt><trkpt lat="40.310990" lon="-6.459680"><ele>1004.2</ele><time>2008-07-26T11:38:59Z</time></trkpt><trkpt lat="40.311100" lon="-6.459720"><ele>1002.8</ele><time>2008-07-26T11:39:22Z</time></trkpt><trkpt lat="40.311300" lon="-6.459740"><ele>1003.3</ele><time>2008-07-26T11:39:37Z</time></trkpt><trkpt lat="40.311490" lon="-6.459770"><ele>1002.8</ele><time>2008-07-26T11:39:53Z</time></trkpt><trkpt lat="40.311760" lon="-6.459830"><ele>1004.7</ele><time>2008-07-26T11:40:09Z</time></trkpt><trkpt lat="40.312120" lon="-6.459920"><ele>999.4</ele><time>2008-07-26T11:40:40Z</time></trkpt><trkpt lat="40.312180" lon="-6.459960"><ele>998.5</ele><time>2008-07-26T11:40:48Z</time></trkpt><trkpt lat="40.312290" lon="-6.460130"><ele>999.0</ele><time>2008-07-26T11:41:01Z</time></trkpt><trkpt lat="40.312310" lon="-6.460390"><ele>999.9</ele><time>2008-07-26T11:41:18Z</time></trkpt><trkpt lat="40.312120" lon="-6.460580"><ele>998.5</ele><time>2008-07-26T11:41:32Z</time></trkpt><trkpt lat="40.311900" lon="-6.460750"><ele>990.3</ele><time>2008-07-26T11:41:48Z</time></trkpt><trkpt lat="40.311800" lon="-6.460800"><ele>988.4</ele><time>2008-07-26T11:41:59Z</time></trkpt><trkpt lat="40.311630" lon="-6.460920"><ele>987.4</ele><time>2008-07-26T11:42:16Z</time></trkpt><trkpt lat="40.311490" lon="-6.461040"><ele>986.0</ele><time>2008-07-26T11:42:31Z</time></trkpt><trkpt lat="40.311380" lon="-6.461120"><ele>983.1</ele><time>2008-07-26T11:42:54Z</time></trkpt><trkpt lat="40.311200" lon="-6.461160"><ele>978.3</ele><time>2008-07-26T11:43:10Z</time></trkpt><trkpt lat="40.310960" lon="-6.461100"><ele>973.0</ele><time>2008-07-26T11:43:28Z</time></trkpt><trkpt lat="40.310740" lon="-6.461050"><ele>972.5</ele><time>2008-07-26T11:43:43Z</time></trkpt><trkpt lat="40.310710" lon="-6.461060"><ele>972.5</ele><time>2008-07-26T11:43:44Z</time></trkpt><trkpt lat="40.310710" lon="-6.461200"><ele>971.1</ele><time>2008-07-26T11:43:56Z</time></trkpt><trkpt lat="40.310750" lon="-6.461240"><ele>971.1</ele><time>2008-07-26T11:44:00Z</time></trkpt><trkpt lat="40.310870" lon="-6.461410"><ele>963.4</ele><time>2008-07-26T11:44:12Z</time></trkpt><trkpt lat="40.310920" lon="-6.461510"><ele>960.5</ele><time>2008-07-26T11:44:19Z</time></trkpt><trkpt lat="40.310950" lon="-6.461550"><ele>960.0</ele><time>2008-07-26T11:44:22Z</time></trkpt><trkpt lat="40.311020" lon="-6.461750"><ele>959.1</ele><time>2008-07-26T11:44:33Z</time></trkpt><trkpt lat="40.311140" lon="-6.461970"><ele>957.6</ele><time>2008-07-26T11:44:45Z</time></trkpt><trkpt lat="40.311240" lon="-6.462170"><ele>956.2</ele><time>2008-07-26T11:44:57Z</time></trkpt><trkpt lat="40.311360" lon="-6.462380"><ele>953.3</ele><time>2008-07-26T11:45:09Z</time></trkpt><trkpt lat="40.311490" lon="-6.462550"><ele>950.4</ele><time>2008-07-26T11:45:21Z</time></trkpt><trkpt lat="40.311580" lon="-6.462750"><ele>947.0</ele><time>2008-07-26T11:45:32Z</time></trkpt><trkpt lat="40.311630" lon="-6.462970"><ele>942.2</ele><time>2008-07-26T11:45:48Z</time></trkpt><trkpt lat="40.311650" lon="-6.463090"><ele>940.8</ele><time>2008-07-26T11:45:55Z</time></trkpt><trkpt lat="40.311670" lon="-6.463210"><ele>937.4</ele><time>2008-07-26T11:46:02Z</time></trkpt><trkpt lat="40.311780" lon="-6.463370"><ele>933.6</ele><time>2008-07-26T11:46:11Z</time></trkpt><trkpt lat="40.311830" lon="-6.463450"><ele>931.2</ele><time>2008-07-26T11:46:18Z</time></trkpt><trkpt lat="40.311880" lon="-6.463520"><ele>929.2</ele><time>2008-07-26T11:46:22Z</time></trkpt><trkpt lat="40.311950" lon="-6.463740"><ele>927.8</ele><time>2008-07-26T11:46:37Z</time></trkpt><trkpt lat="40.311990" lon="-6.463890"><ele>926.4</ele><time>2008-07-26T11:46:46Z</time></trkpt><trkpt lat="40.311930" lon="-6.464050"><ele>924.9</ele><time>2008-07-26T11:46:56Z</time></trkpt><trkpt lat="40.311830" lon="-6.464250"><ele>922.5</ele><time>2008-07-26T11:47:06Z</time></trkpt><trkpt lat="40.311830" lon="-6.464320"><ele>920.6</ele><time>2008-07-26T11:47:12Z</time></trkpt><trkpt lat="40.311730" lon="-6.464470"><ele>917.7</ele><time>2008-07-26T11:47:24Z</time></trkpt><trkpt lat="40.311650" lon="-6.464560"><ele>915.3</ele><time>2008-07-26T11:47:32Z</time></trkpt><trkpt lat="40.311520" lon="-6.464720"><ele>907.6</ele><time>2008-07-26T11:47:47Z</time></trkpt><trkpt lat="40.311350" lon="-6.464860"><ele>905.2</ele><time>2008-07-26T11:47:59Z</time></trkpt><trkpt lat="40.311290" lon="-6.464910"><ele>906.7</ele><time>2008-07-26T11:48:09Z</time></trkpt><trkpt lat="40.311120" lon="-6.465040"><ele>902.3</ele><time>2008-07-26T11:48:23Z</time></trkpt><trkpt lat="40.310990" lon="-6.465180"><ele>901.8</ele><time>2008-07-26T11:48:36Z</time></trkpt><trkpt lat="40.310820" lon="-6.465340"><ele>897.5</ele><time>2008-07-26T11:48:49Z</time></trkpt><trkpt lat="40.310710" lon="-6.465470"><ele>893.7</ele><time>2008-07-26T11:49:01Z</time></trkpt><trkpt lat="40.310630" lon="-6.465520"><ele>892.7</ele><time>2008-07-26T11:49:07Z</time></trkpt><trkpt lat="40.310480" lon="-6.465710"><ele>887.9</ele><time>2008-07-26T11:49:21Z</time></trkpt><trkpt lat="40.310340" lon="-6.465790"><ele>887.0</ele><time>2008-07-26T11:49:32Z</time></trkpt><trkpt lat="40.310220" lon="-6.465920"><ele>884.1</ele><time>2008-07-26T11:49:43Z</time></trkpt><trkpt lat="40.310200" lon="-6.465970"><ele>882.6</ele><time>2008-07-26T11:49:46Z</time></trkpt><trkpt lat="40.309980" lon="-6.466150"><ele>875.9</ele><time>2008-07-26T11:50:01Z</time></trkpt><trkpt lat="40.309820" lon="-6.466360"><ele>870.1</ele><time>2008-07-26T11:50:17Z</time></trkpt><trkpt lat="40.309710" lon="-6.466460"><ele>867.2</ele><time>2008-07-26T11:50:25Z</time></trkpt><trkpt lat="40.309610" lon="-6.466580"><ele>863.4</ele><time>2008-07-26T11:50:36Z</time></trkpt><trkpt lat="40.309620" lon="-6.466590"><ele>859.1</ele><time>2008-07-26T11:51:01Z</time></trkpt><trkpt lat="40.309580" lon="-6.466630"><ele>859.1</ele><time>2008-07-26T11:51:07Z</time></trkpt><trkpt lat="40.309440" lon="-6.466770"><ele>860.5</ele><time>2008-07-26T11:51:16Z</time></trkpt><trkpt lat="40.309350" lon="-6.466850"><ele>856.7</ele><time>2008-07-26T11:51:23Z</time></trkpt><trkpt lat="40.309170" lon="-6.467050"><ele>855.2</ele><time>2008-07-26T11:51:41Z</time></trkpt><trkpt lat="40.308970" lon="-6.467140"><ele>850.9</ele><time>2008-07-26T11:51:54Z</time></trkpt><trkpt lat="40.308820" lon="-6.467130"><ele>844.2</ele><time>2008-07-26T11:52:06Z</time></trkpt><trkpt lat="40.308540" lon="-6.467230"><ele>837.9</ele><time>2008-07-26T11:52:25Z</time></trkpt><trkpt lat="40.308260" lon="-6.467590"><ele>833.1</ele><time>2008-07-26T11:52:52Z</time></trkpt><trkpt lat="40.308090" lon="-6.467850"><ele>830.2</ele><time>2008-07-26T11:53:07Z</time></trkpt><trkpt lat="40.307930" lon="-6.468070"><ele>827.3</ele><time>2008-07-26T11:53:22Z</time></trkpt><trkpt lat="40.307770" lon="-6.468370"><ele>826.9</ele><time>2008-07-26T11:53:37Z</time></trkpt><trkpt lat="40.307670" lon="-6.468600"><ele>826.4</ele><time>2008-07-26T11:53:50Z</time></trkpt><trkpt lat="40.307610" lon="-6.468740"><ele>824.5</ele><time>2008-07-26T11:53:58Z</time></trkpt><trkpt lat="40.307600" lon="-6.468800"><ele>822.1</ele><time>2008-07-26T11:54:02Z</time></trkpt><trkpt lat="40.307600" lon="-6.468860"><ele>821.1</ele><time>2008-07-26T11:54:05Z</time></trkpt><trkpt lat="40.307490" lon="-6.469100"><ele>817.3</ele><time>2008-07-26T11:54:17Z</time></trkpt><trkpt lat="40.307320" lon="-6.469370"><ele>813.4</ele><time>2008-07-26T11:54:32Z</time></trkpt><trkpt lat="40.307210" lon="-6.469510"><ele>809.6</ele><time>2008-07-26T11:54:44Z</time></trkpt><trkpt lat="40.307050" lon="-6.469650"><ele>809.6</ele><time>2008-07-26T11:54:56Z</time></trkpt><trkpt lat="40.306890" lon="-6.469770"><ele>805.7</ele><time>2008-07-26T11:55:08Z</time></trkpt><trkpt lat="40.306800" lon="-6.469850"><ele>804.3</ele><time>2008-07-26T11:55:17Z</time></trkpt><trkpt lat="40.306780" lon="-6.469850"><ele>804.3</ele><time>2008-07-26T11:55:19Z</time></trkpt><trkpt lat="40.306660" lon="-6.469920"><ele>803.3</ele><time>2008-07-26T11:55:26Z</time></trkpt><trkpt lat="40.306620" lon="-6.469950"><ele>801.9</ele><time>2008-07-26T11:55:37Z</time></trkpt><trkpt lat="40.306570" lon="-6.470030"><ele>798.5</ele><time>2008-07-26T11:56:06Z</time></trkpt><trkpt lat="40.306430" lon="-6.470160"><ele>797.5</ele><time>2008-07-26T11:56:19Z</time></trkpt><trkpt lat="40.306250" lon="-6.470320"><ele>795.6</ele><time>2008-07-26T11:56:32Z</time></trkpt><trkpt lat="40.306090" lon="-6.470490"><ele>792.8</ele><time>2008-07-26T11:56:47Z</time></trkpt><trkpt lat="40.305980" lon="-6.470680"><ele>791.3</ele><time>2008-07-26T11:57:02Z</time></trkpt><trkpt lat="40.305930" lon="-6.470940"><ele>785.5</ele><time>2008-07-26T11:57:17Z</time></trkpt><trkpt lat="40.305940" lon="-6.471250"><ele>784.6</ele><time>2008-07-26T11:57:34Z</time></trkpt><trkpt lat="40.305950" lon="-6.471450"><ele>782.7</ele><time>2008-07-26T11:57:44Z</time></trkpt><trkpt lat="40.305950" lon="-6.471560"><ele>780.3</ele><time>2008-07-26T11:57:53Z</time></trkpt><trkpt lat="40.305930" lon="-6.471790"><ele>777.4</ele><time>2008-07-26T11:58:07Z</time></trkpt><trkpt lat="40.305860" lon="-6.472040"><ele>774.0</ele><time>2008-07-26T11:58:20Z</time></trkpt><trkpt lat="40.305780" lon="-6.472260"><ele>770.6</ele><time>2008-07-26T11:58:32Z</time></trkpt><trkpt lat="40.305610" lon="-6.472640"><ele>767.8</ele><time>2008-07-26T11:58:58Z</time></trkpt><trkpt lat="40.305510" lon="-6.472820"><ele>765.4</ele><time>2008-07-26T11:59:11Z</time></trkpt><trkpt lat="40.305380" lon="-6.473040"><ele>760.5</ele><time>2008-07-26T11:59:26Z</time></trkpt><trkpt lat="40.305340" lon="-6.473090"><ele>759.6</ele><time>2008-07-26T11:59:37Z</time></trkpt><trkpt lat="40.305220" lon="-6.473280"><ele>757.2</ele><time>2008-07-26T11:59:52Z</time></trkpt><trkpt lat="40.305090" lon="-6.473480"><ele>757.6</ele><time>2008-07-26T12:00:05Z</time></trkpt><trkpt lat="40.304870" lon="-6.473670"><ele>755.7</ele><time>2008-07-26T12:00:30Z</time></trkpt><trkpt lat="40.304670" lon="-6.473770"><ele>753.3</ele><time>2008-07-26T12:00:45Z</time></trkpt><trkpt lat="40.304460" lon="-6.473800"><ele>751.4</ele><time>2008-07-26T12:01:01Z</time></trkpt><trkpt lat="40.304230" lon="-6.473880"><ele>750.9</ele><time>2008-07-26T12:01:17Z</time></trkpt><trkpt lat="40.304170" lon="-6.473880"><ele>750.4</ele><time>2008-07-26T12:01:22Z</time></trkpt><trkpt lat="40.303950" lon="-6.473920"><ele>749.5</ele><time>2008-07-26T12:01:39Z</time></trkpt><trkpt lat="40.303680" lon="-6.474070"><ele>747.6</ele><time>2008-07-26T12:01:56Z</time></trkpt><trkpt lat="40.303500" lon="-6.474130"><ele>746.6</ele><time>2008-07-26T12:02:07Z</time></trkpt><trkpt lat="40.303320" lon="-6.474180"><ele>746.6</ele><time>2008-07-26T12:02:20Z</time></trkpt><trkpt lat="40.303140" lon="-6.474220"><ele>744.2</ele><time>2008-07-26T12:02:34Z</time></trkpt><trkpt lat="40.303130" lon="-6.474210"><ele>744.2</ele><time>2008-07-26T12:02:46Z</time></trkpt><trkpt lat="40.303100" lon="-6.474250"><ele>742.8</ele><time>2008-07-26T12:02:51Z</time></trkpt><trkpt lat="40.303050" lon="-6.474300"><ele>743.2</ele><time>2008-07-26T12:02:56Z</time></trkpt><trkpt lat="40.302800" lon="-6.474460"><ele>742.8</ele><time>2008-07-26T12:03:14Z</time></trkpt><trkpt lat="40.302740" lon="-6.474570"><ele>740.8</ele><time>2008-07-26T12:03:27Z</time></trkpt><trkpt lat="40.302580" lon="-6.474710"><ele>739.9</ele><time>2008-07-26T12:03:37Z</time></trkpt><trkpt lat="40.302390" lon="-6.474820"><ele>738.0</ele><time>2008-07-26T12:03:51Z</time></trkpt><trkpt lat="40.301990" lon="-6.475000"><ele>738.0</ele><time>2008-07-26T12:04:22Z</time></trkpt><trkpt lat="40.301900" lon="-6.475090"><ele>734.6</ele><time>2008-07-26T12:04:35Z</time></trkpt><trkpt lat="40.301780" lon="-6.475230"><ele>733.6</ele><time>2008-07-26T12:04:50Z</time></trkpt><trkpt lat="40.301430" lon="-6.475820"><ele>734.6</ele><time>2008-07-26T12:05:32Z</time></trkpt><trkpt lat="40.301440" lon="-6.476470"><ele>725.5</ele><time>2008-07-26T12:06:05Z</time></trkpt><trkpt lat="40.301580" lon="-6.476670"><ele>720.6</ele><time>2008-07-26T12:06:15Z</time></trkpt><trkpt lat="40.301790" lon="-6.476770"><ele>716.8</ele><time>2008-07-26T12:06:30Z</time></trkpt><trkpt lat="40.302040" lon="-6.476640"><ele>713.9</ele><time>2008-07-26T12:06:45Z</time></trkpt><trkpt lat="40.302250" lon="-6.476370"><ele>711.5</ele><time>2008-07-26T12:07:07Z</time></trkpt><trkpt lat="40.303110" lon="-6.475270"><ele>707.7</ele><time>2008-07-26T12:08:30Z</time></trkpt><trkpt lat="40.303200" lon="-6.475410"><ele>702.4</ele><time>2008-07-26T12:08:45Z</time></trkpt><trkpt lat="40.303230" lon="-6.475460"><ele>701.9</ele><time>2008-07-26T12:08:49Z</time></trkpt><trkpt lat="40.303390" lon="-6.475630"><ele>696.6</ele><time>2008-07-26T12:09:01Z</time></trkpt><trkpt lat="40.303660" lon="-6.475830"><ele>693.2</ele><time>2008-07-26T12:09:19Z</time></trkpt><trkpt lat="40.303910" lon="-6.475940"><ele>685.6</ele><time>2008-07-26T12:09:35Z</time></trkpt><trkpt lat="40.304110" lon="-6.476020"><ele>680.3</ele><time>2008-07-26T12:09:50Z</time></trkpt><trkpt lat="40.304320" lon="-6.476110"><ele>677.4</ele><time>2008-07-26T12:10:09Z</time></trkpt><trkpt lat="40.305430" lon="-6.476080"><ele>659.6</ele><time>2008-07-26T12:11:53Z</time></trkpt><trkpt lat="40.305720" lon="-6.476030"><ele>654.3</ele><time>2008-07-26T12:12:08Z</time></trkpt><trkpt lat="40.305930" lon="-6.476040"><ele>649.5</ele><time>2008-07-26T12:12:21Z</time></trkpt><trkpt lat="40.305960" lon="-6.476050"><ele>649.0</ele><time>2008-07-26T12:12:24Z</time></trkpt><trkpt lat="40.306130" lon="-6.476030"><ele>644.7</ele><time>2008-07-26T12:12:37Z</time></trkpt><trkpt lat="40.306330" lon="-6.476040"><ele>641.3</ele><time>2008-07-26T12:12:52Z</time></trkpt><trkpt lat="40.306490" lon="-6.475950"><ele>638.5</ele><time>2008-07-26T12:13:06Z</time></trkpt><trkpt lat="40.306600" lon="-6.475860"><ele>637.0</ele><time>2008-07-26T12:13:15Z</time></trkpt><trkpt lat="40.306920" lon="-6.475980"><ele>629.8</ele><time>2008-07-26T12:13:42Z</time></trkpt><trkpt lat="40.307050" lon="-6.476190"><ele>626.4</ele><time>2008-07-26T12:13:56Z</time></trkpt><trkpt lat="40.307170" lon="-6.476380"><ele>625.5</ele><time>2008-07-26T12:14:08Z</time></trkpt><trkpt lat="40.307240" lon="-6.476440"><ele>625.5</ele><time>2008-07-26T12:14:13Z</time></trkpt><trkpt lat="40.307290" lon="-6.476510"><ele>629.3</ele><time>2008-07-26T12:14:28Z</time></trkpt><trkpt lat="40.307400" lon="-6.476540"><ele>625.0</ele><time>2008-07-26T12:14:48Z</time></trkpt><trkpt lat="40.307520" lon="-6.476560"><ele>624.0</ele><time>2008-07-26T12:14:55Z</time></trkpt><trkpt lat="40.307830" lon="-6.476680"><ele>624.0</ele><time>2008-07-26T12:14:59Z</time></trkpt><trkpt lat="40.308040" lon="-6.476680"><ele>623.6</ele><time>2008-07-26T12:15:07Z</time></trkpt><trkpt lat="40.308060" lon="-6.476670"><ele>623.6</ele><time>2008-07-26T12:15:07Z</time></trkpt><trkpt lat="40.308080" lon="-6.476710"><ele>623.1</ele><time>2008-07-26T12:15:11Z</time></trkpt><trkpt lat="40.308210" lon="-6.476850"><ele>625.5</ele><time>2008-07-26T12:15:26Z</time></trkpt><trkpt lat="40.308390" lon="-6.477020"><ele>623.1</ele><time>2008-07-26T12:15:45Z</time></trkpt><trkpt lat="40.308980" lon="-6.477170"><ele>617.3</ele><time>2008-07-26T12:16:40Z</time></trkpt><trkpt lat="40.309180" lon="-6.477070"><ele>612.0</ele><time>2008-07-26T12:17:01Z</time></trkpt><trkpt lat="40.309410" lon="-6.476880"><ele>608.2</ele><time>2008-07-26T12:17:17Z</time></trkpt><trkpt lat="40.309580" lon="-6.476040"><ele>580.3</ele><time>2008-07-26T12:18:43Z</time></trkpt><trkpt lat="40.309590" lon="-6.476090"><ele>578.8</ele><time>2008-07-26T12:18:47Z</time></trkpt><trkpt lat="40.309670" lon="-6.476390"><ele>576.0</ele><time>2008-07-26T12:19:03Z</time></trkpt><trkpt lat="40.309790" lon="-6.476630"><ele>572.1</ele><time>2008-07-26T12:19:18Z</time></trkpt><trkpt lat="40.309870" lon="-6.476840"><ele>568.8</ele><time>2008-07-26T12:19:33Z</time></trkpt><trkpt lat="40.309930" lon="-6.477040"><ele>566.8</ele><time>2008-07-26T12:19:44Z</time></trkpt><trkpt lat="40.309930" lon="-6.477270"><ele>562.5</ele><time>2008-07-26T12:19:56Z</time></trkpt><trkpt lat="40.309840" lon="-6.477530"><ele>558.2</ele><time>2008-07-26T12:20:14Z</time></trkpt><trkpt lat="40.309670" lon="-6.477790"><ele>554.8</ele><time>2008-07-26T12:20:30Z</time></trkpt><trkpt lat="40.309440" lon="-6.477970"><ele>552.9</ele><time>2008-07-26T12:20:43Z</time></trkpt><trkpt lat="40.309150" lon="-6.478150"><ele>553.9</ele><time>2008-07-26T12:21:04Z</time></trkpt><trkpt lat="40.308890" lon="-6.478210"><ele>552.9</ele><time>2008-07-26T12:21:23Z</time></trkpt><trkpt lat="40.308640" lon="-6.478270"><ele>554.3</ele><time>2008-07-26T12:21:39Z</time></trkpt><trkpt lat="40.308340" lon="-6.478370"><ele>559.2</ele><time>2008-07-26T12:21:56Z</time></trkpt><trkpt lat="40.308330" lon="-6.478350"><ele>559.6</ele><time>2008-07-26T12:22:12Z</time></trkpt><trkpt lat="40.308080" lon="-6.478260"><ele>559.6</ele><time>2008-07-26T12:22:53Z</time></trkpt><trkpt lat="40.307870" lon="-6.478300"><ele>558.7</ele><time>2008-07-26T12:23:08Z</time></trkpt><trkpt lat="40.307720" lon="-6.478590"><ele>554.3</ele><time>2008-07-26T12:23:24Z</time></trkpt><trkpt lat="40.307690" lon="-6.479000"><ele>554.8</ele><time>2008-07-26T12:23:43Z</time></trkpt><trkpt lat="40.307690" lon="-6.479070"><ele>554.8</ele><time>2008-07-26T12:23:56Z</time></trkpt><trkpt lat="40.307690" lon="-6.479090"><ele>556.3</ele><time>2008-07-26T12:24:03Z</time></trkpt><trkpt lat="40.307640" lon="-6.479140"><ele>557.7</ele><time>2008-07-26T12:24:07Z</time></trkpt><trkpt lat="40.307470" lon="-6.479310"><ele>559.6</ele><time>2008-07-26T12:24:21Z</time></trkpt><trkpt lat="40.307260" lon="-6.479380"><ele>558.7</ele><time>2008-07-26T12:24:38Z</time></trkpt><trkpt lat="40.306850" lon="-6.479250"><ele>559.2</ele><time>2008-07-26T12:25:09Z</time></trkpt><trkpt lat="40.306450" lon="-6.478700"><ele>554.3</ele><time>2008-07-26T12:25:44Z</time></trkpt><trkpt lat="40.306390" lon="-6.478710"><ele>555.3</ele><time>2008-07-26T12:25:51Z</time></trkpt><trkpt lat="40.306330" lon="-6.478790"><ele>554.8</ele><time>2008-07-26T12:25:58Z</time></trkpt><trkpt lat="40.306220" lon="-6.479040"><ele>555.3</ele><time>2008-07-26T12:26:17Z</time></trkpt><trkpt lat="40.306220" lon="-6.479370"><ele>553.9</ele><time>2008-07-26T12:26:29Z</time></trkpt><trkpt lat="40.306210" lon="-6.479580"><ele>551.9</ele><time>2008-07-26T12:26:41Z</time></trkpt><trkpt lat="40.306330" lon="-6.479960"><ele>549.5</ele><time>2008-07-26T12:27:00Z</time></trkpt><trkpt lat="40.306290" lon="-6.480150"><ele>543.8</ele><time>2008-07-26T12:27:14Z</time></trkpt><trkpt lat="40.306250" lon="-6.480360"><ele>538.0</ele><time>2008-07-26T12:27:26Z</time></trkpt><trkpt lat="40.306120" lon="-6.480590"><ele>535.6</ele><time>2008-07-26T12:27:38Z</time></trkpt><trkpt lat="40.306020" lon="-6.480680"><ele>536.1</ele><time>2008-07-26T12:27:49Z</time></trkpt><trkpt lat="40.305940" lon="-6.480760"><ele>542.3</ele><time>2008-07-26T12:28:10Z</time></trkpt><trkpt lat="40.305920" lon="-6.480880"><ele>550.5</ele><time>2008-07-26T12:28:36Z</time></trkpt><trkpt lat="40.305890" lon="-6.480930"><ele>548.6</ele><time>2008-07-26T12:28:51Z</time></trkpt><trkpt lat="40.305550" lon="-6.481060"><ele>545.2</ele><time>2008-07-26T12:29:15Z</time></trkpt><trkpt lat="40.305340" lon="-6.481070"><ele>545.7</ele><time>2008-07-26T12:29:30Z</time></trkpt><trkpt lat="40.305350" lon="-6.481130"><ele>542.3</ele><time>2008-07-26T12:29:42Z</time></trkpt><trkpt lat="40.305360" lon="-6.481110"><ele>534.2</ele><time>2008-07-26T12:30:24Z</time></trkpt><trkpt lat="40.305420" lon="-6.481070"><ele>520.2</ele><time>2008-07-26T12:32:27Z</time></trkpt><trkpt lat="40.305470" lon="-6.481020"><ele>523.6</ele><time>2008-07-26T12:32:38Z</time></trkpt><trkpt lat="40.305350" lon="-6.481000"><ele>523.1</ele><time>2008-07-26T12:32:55Z</time></trkpt><trkpt lat="40.305310" lon="-6.481130"><ele>523.1</ele><time>2008-07-26T12:32:59Z</time></trkpt><trkpt lat="40.305540" lon="-6.481390"><ele>524.5</ele><time>2008-07-26T12:33:10Z</time></trkpt><trkpt lat="40.305780" lon="-6.481540"><ele>525.5</ele><time>2008-07-26T12:33:26Z</time></trkpt><trkpt lat="40.305990" lon="-6.481500"><ele>524.5</ele><time>2008-07-26T12:33:48Z</time></trkpt><trkpt lat="40.306380" lon="-6.481190"><ele>524.0</ele><time>2008-07-26T12:34:28Z</time></trkpt><trkpt lat="40.306530" lon="-6.480910"><ele>522.1</ele><time>2008-07-26T12:34:40Z</time></trkpt><trkpt lat="40.306590" lon="-6.480930"><ele>522.6</ele><time>2008-07-26T12:34:44Z</time></trkpt><trkpt lat="40.306590" lon="-6.480820"><ele>522.6</ele><time>2008-07-26T12:34:47Z</time></trkpt><trkpt lat="40.306770" lon="-6.480390"><ele>527.9</ele><time>2008-07-26T12:35:02Z</time></trkpt><trkpt lat="40.306880" lon="-6.480500"><ele>528.4</ele><time>2008-07-26T12:35:07Z</time></trkpt><trkpt lat="40.306930" lon="-6.480730"><ele>528.4</ele><time>2008-07-26T12:35:15Z</time></trkpt><trkpt lat="40.307110" lon="-6.481650"><ele>519.7</ele><time>2008-07-26T12:36:03Z</time></trkpt><trkpt lat="40.307170" lon="-6.481860"><ele>515.4</ele><time>2008-07-26T12:36:16Z</time></trkpt><trkpt lat="40.307240" lon="-6.482050"><ele>511.5</ele><time>2008-07-26T12:36:30Z</time></trkpt><trkpt lat="40.307330" lon="-6.482220"><ele>509.6</ele><time>2008-07-26T12:36:46Z</time></trkpt><trkpt lat="40.307420" lon="-6.482430"><ele>509.6</ele><time>2008-07-26T12:37:01Z</time></trkpt><trkpt lat="40.307550" lon="-6.482730"><ele>510.1</ele><time>2008-07-26T12:37:21Z</time></trkpt><trkpt lat="40.307530" lon="-6.482950"><ele>510.1</ele><time>2008-07-26T12:37:43Z</time></trkpt><trkpt lat="40.307530" lon="-6.482890"><ele>507.7</ele><time>2008-07-26T12:38:34Z</time></trkpt></trkseg></trk></gpx>